AFL320 UUEE-VRMM
Flight info
| Callsign | AFL320 |
|---|---|
| Flight time | N/A |
| Altitude | 33000 |
| Route | EMGAS3J EMGAS T828 OLBEG N72 WGD A927 SL/K0893F340 A964 NOKLI/K0898F330 N72 OLINU/K0891F350 N72 BISNA/N0484F350 N72 BAKUV N39 NSH R794 DHN Y10 RERET M715 PURKI W32 BND/N0497F360 M324 PATAT/N0504F340 L519 EGPEP/N0500F350 L313 KIPOK L223 TARDI N629 GIDAN P570 KITAL L894 BOLUR/N0493F370 L894 ELBET ELBET1A |
| Aircraft | B77W/H-SDE1E2E3FGHIJ2J3J4J5M1RWXY/LB1D1 |
Departure
| Time | 2026-02-20 23:30 |
|---|---|
| Airport | Sheremetyevo International Airport (UUEE) |
Arrival
| Time | N/A |
|---|---|
| Airport | Velana International Airport (VRMM) |
| Time | Latitude | Longitude | Altitude | Speed | Heading |
|---|---|---|---|---|---|
| 2026-02-20 22:54 | 55.97868 | 37.40980 | 644 ft | 0 kts | 76° |
| 2026-02-20 23:13 | 55.97867 | 37.40979 | 644 ft | 1 kts | 76° |
| 2026-02-20 23:13 | 55.97864 | 37.40953 | 646 ft | 3 kts | 76° |
| 2026-02-20 23:13 | 55.97859 | 37.40918 | 650 ft | 3 kts | 76° |
| 2026-02-20 23:14 | 55.97855 | 37.40889 | 647 ft | 3 kts | 79° |
| 2026-02-20 23:14 | 55.97853 | 37.40858 | 646 ft | 3 kts | 100° |
| 2026-02-20 23:14 | 55.97856 | 37.40836 | 644 ft | 3 kts | 132° |
| 2026-02-20 23:14 | 55.97862 | 37.40825 | 646 ft | 3 kts | 168° |
| 2026-02-20 23:15 | 55.97881 | 37.40822 | 647 ft | 3 kts | 180° |
| 2026-02-20 23:15 | 55.97901 | 37.40821 | 646 ft | 3 kts | 173° |
| 2026-02-20 23:15 | 55.97912 | 37.40818 | 646 ft | 0 kts | 165° |
| 2026-02-20 23:19 | 55.97910 | 37.40819 | 647 ft | 1 kts | 165° |
| 2026-02-20 23:19 | 55.97888 | 37.40830 | 647 ft | 5 kts | 165° |
| 2026-02-20 23:19 | 55.97837 | 37.40854 | 650 ft | 10 kts | 165° |
| 2026-02-20 23:20 | 55.97795 | 37.40874 | 647 ft | 5 kts | 165° |
| 2026-02-20 23:20 | 55.97750 | 37.40896 | 647 ft | 9 kts | 165° |
| 2026-02-20 23:20 | 55.97673 | 37.40932 | 651 ft | 14 kts | 165° |
| 2026-02-20 23:20 | 55.97607 | 37.40985 | 649 ft | 7 kts | 126° |
| 2026-02-20 23:21 | 55.97608 | 37.41074 | 649 ft | 9 kts | 72° |
| 2026-02-20 23:21 | 55.97627 | 37.41188 | 646 ft | 10 kts | 74° |
| 2026-02-20 23:21 | 55.97645 | 37.41302 | 649 ft | 10 kts | 74° |
| 2026-02-20 23:21 | 55.97663 | 37.41417 | 647 ft | 10 kts | 75° |
| 2026-02-20 23:22 | 55.97669 | 37.41534 | 647 ft | 10 kts | 105° |
| 2026-02-20 23:22 | 55.97624 | 37.41620 | 651 ft | 10 kts | 127° |
| 2026-02-20 23:22 | 55.97618 | 37.41737 | 651 ft | 10 kts | 78° |
| 2026-02-20 23:22 | 55.97635 | 37.41854 | 649 ft | 10 kts | 75° |
| 2026-02-20 23:23 | 55.97652 | 37.41971 | 646 ft | 10 kts | 75° |
| 2026-02-20 23:23 | 55.97670 | 37.42087 | 645 ft | 10 kts | 75° |
| 2026-02-20 23:23 | 55.97687 | 37.42204 | 649 ft | 10 kts | 75° |
| 2026-02-20 23:23 | 55.97705 | 37.42320 | 650 ft | 10 kts | 75° |
| 2026-02-20 23:24 | 55.97722 | 37.42437 | 649 ft | 10 kts | 75° |
| 2026-02-20 23:24 | 55.97740 | 37.42554 | 644 ft | 10 kts | 75° |
| 2026-02-20 23:24 | 55.97759 | 37.42677 | 645 ft | 12 kts | 75° |
| 2026-02-20 23:24 | 55.97782 | 37.42837 | 649 ft | 15 kts | 75° |
| 2026-02-20 23:25 | 55.97811 | 37.43032 | 647 ft | 18 kts | 75° |
| 2026-02-20 23:25 | 55.97845 | 37.43257 | 648 ft | 20 kts | 75° |
| 2026-02-20 23:25 | 55.97884 | 37.43521 | 646 ft | 22 kts | 75° |
| 2026-02-20 23:25 | 55.97914 | 37.43718 | 645 ft | 18 kts | 75° |
| 2026-02-20 23:26 | 55.97939 | 37.43881 | 647 ft | 9 kts | 75° |
| 2026-02-20 23:26 | 55.97947 | 37.43934 | 645 ft | 4 kts | 77° |
| 2026-02-20 23:26 | 55.97927 | 37.44017 | 650 ft | 0 kts | 145° |
| 2026-02-20 23:27 | 55.97923 | 37.44021 | 649 ft | 1 kts | 145° |
| 2026-02-20 23:28 | 55.97906 | 37.44039 | 651 ft | 5 kts | 153° |
| 2026-02-20 23:28 | 55.97857 | 37.44066 | 646 ft | 9 kts | 165° |
| 2026-02-20 23:28 | 55.97795 | 37.44051 | 649 ft | 6 kts | 221° |
| 2026-02-20 23:28 | 55.97778 | 37.43992 | 648 ft | 0 kts | 252° |
| 2026-02-20 23:29 | 55.97756 | 37.43862 | 650 ft | 35 kts | 253° |
| 2026-02-20 23:30 | 55.97629 | 37.42996 | 648 ft | 107 kts | 255° |
| 2026-02-20 23:30 | 55.97385 | 37.41353 | 648 ft | 164 kts | 256° |
| 2026-02-20 23:30 | 55.97105 | 37.39218 | 974 ft | 182 kts | 254° |
| 2026-02-20 23:30 | 55.96568 | 37.37145 | 1699 ft | 186 kts | 238° |
| 2026-02-20 23:31 | 55.95802 | 37.35304 | 2495 ft | 188 kts | 238° |
| 2026-02-20 23:31 | 55.95044 | 37.33359 | 3166 ft | 189 kts | 239° |
| 2026-02-20 23:31 | 55.94288 | 37.31480 | 3854 ft | 192 kts | 238° |
| 2026-02-20 23:31 | 55.93505 | 37.29470 | 4343 ft | 201 kts | 239° |
| 2026-02-20 23:32 | 55.92683 | 37.27291 | 4645 ft | 224 kts | 239° |
| 2026-02-20 23:32 | 55.91781 | 37.24922 | 5135 ft | 237 kts | 238° |
| 2026-02-20 23:32 | 55.90832 | 37.22454 | 5780 ft | 246 kts | 238° |
| 2026-02-20 23:32 | 55.89847 | 37.19899 | 6495 ft | 253 kts | 238° |
| 2026-02-20 23:33 | 55.88859 | 37.17276 | 6977 ft | 256 kts | 243° |
| 2026-02-20 23:33 | 55.88088 | 37.14382 | 6993 ft | 260 kts | 250° |
| 2026-02-20 23:33 | 55.87406 | 37.11408 | 6996 ft | 258 kts | 250° |
| 2026-02-20 23:33 | 55.86727 | 37.08475 | 6993 ft | 253 kts | 251° |
| 2026-02-20 23:34 | 55.85811 | 37.05834 | 7105 ft | 258 kts | 221° |
| 2026-02-20 23:34 | 55.84127 | 37.04571 | 7716 ft | 275 kts | 188° |
| 2026-02-20 23:34 | 55.82193 | 37.04683 | 8394 ft | 283 kts | 176° |
| 2026-02-20 23:34 | 55.80218 | 37.05141 | 9106 ft | 289 kts | 175° |
| 2026-02-20 23:35 | 55.78215 | 37.05659 | 9880 ft | 293 kts | 175° |
| 2026-02-20 23:35 | 55.76168 | 37.06202 | 10457 ft | 303 kts | 175° |
| 2026-02-20 23:35 | 55.74028 | 37.06768 | 10908 ft | 316 kts | 175° |
| 2026-02-20 23:35 | 55.71828 | 37.07346 | 11558 ft | 323 kts | 175° |
| 2026-02-20 23:36 | 55.69582 | 37.07933 | 12306 ft | 328 kts | 175° |
| 2026-02-20 23:36 | 55.67317 | 37.08520 | 13112 ft | 331 kts | 175° |
| 2026-02-20 23:36 | 55.65048 | 37.09103 | 13859 ft | 336 kts | 175° |
| 2026-02-20 23:36 | 55.62726 | 37.09697 | 14552 ft | 336 kts | 175° |
| 2026-02-20 23:37 | 55.60404 | 37.10289 | 14974 ft | 339 kts | 175° |
| 2026-02-20 23:37 | 55.58056 | 37.10886 | 14958 ft | 342 kts | 175° |
| 2026-02-20 23:37 | 55.56464 | 37.11290 | 14968 ft | 342 kts | 175° |
| 2026-02-20 23:37 | 55.53340 | 37.12082 | 14969 ft | 342 kts | 175° |
| 2026-02-20 23:38 | 55.50981 | 37.12678 | 14970 ft | 342 kts | 175° |
| 2026-02-20 23:38 | 55.48626 | 37.13273 | 14967 ft | 342 kts | 175° |
| 2026-02-20 23:38 | 55.46268 | 37.13867 | 14958 ft | 342 kts | 175° |
| 2026-02-20 23:38 | 55.43926 | 37.14549 | 14946 ft | 339 kts | 167° |
| 2026-02-20 23:39 | 55.41761 | 37.16294 | 14975 ft | 348 kts | 151° |
| 2026-02-20 23:39 | 55.39656 | 37.18484 | 14976 ft | 354 kts | 151° |
| 2026-02-20 23:39 | 55.37531 | 37.20669 | 14964 ft | 354 kts | 152° |
| 2026-02-20 23:39 | 55.35400 | 37.22832 | 14964 ft | 352 kts | 152° |
| 2026-02-20 23:40 | 55.33279 | 37.24963 | 14955 ft | 351 kts | 152° |
| 2026-02-20 23:40 | 55.31135 | 37.27099 | 15043 ft | 362 kts | 152° |
| 2026-02-20 23:40 | 55.28875 | 37.29338 | 15218 ft | 384 kts | 152° |
| 2026-02-20 23:40 | 55.26490 | 37.31699 | 15473 ft | 403 kts | 152° |
| 2026-02-20 23:41 | 55.24021 | 37.34142 | 16020 ft | 411 kts | 152° |
| 2026-02-20 23:41 | 55.21511 | 37.36620 | 16730 ft | 416 kts | 152° |
| 2026-02-20 23:41 | 55.18979 | 37.39150 | 17472 ft | 421 kts | 152° |
| 2026-02-20 23:41 | 55.16435 | 37.41718 | 18283 ft | 423 kts | 152° |
| 2026-02-20 23:42 | 55.13879 | 37.44303 | 18985 ft | 426 kts | 152° |
| 2026-02-20 23:42 | 55.11306 | 37.46896 | 19661 ft | 429 kts | 152° |
| 2026-02-20 23:42 | 55.08706 | 37.49507 | 20202 ft | 435 kts | 152° |
| 2026-02-20 23:42 | 55.06067 | 37.52148 | 20805 ft | 438 kts | 152° |
| 2026-02-20 23:43 | 55.03363 | 37.54610 | 21460 ft | 440 kts | 157° |
| 2026-02-20 23:43 | 55.00585 | 37.56888 | 22100 ft | 442 kts | 157° |
| 2026-02-20 23:43 | 54.97785 | 37.59188 | 22634 ft | 448 kts | 157° |
| 2026-02-20 23:43 | 54.94957 | 37.61530 | 23185 ft | 452 kts | 156° |
| 2026-02-20 23:44 | 54.92087 | 37.63801 | 23753 ft | 453 kts | 160° |
| 2026-02-20 23:44 | 54.89159 | 37.65899 | 24249 ft | 456 kts | 160° |
| 2026-02-20 23:44 | 54.86203 | 37.67971 | 24699 ft | 460 kts | 160° |
| 2026-02-20 23:44 | 54.83267 | 37.70022 | 25153 ft | 463 kts | 160° |
| 2026-02-20 23:45 | 54.80273 | 37.72124 | 25642 ft | 465 kts | 160° |
| 2026-02-20 23:45 | 54.77273 | 37.74242 | 26113 ft | 467 kts | 160° |
| 2026-02-20 23:45 | 54.74255 | 37.76375 | 26524 ft | 471 kts | 160° |
| 2026-02-20 23:45 | 54.71203 | 37.78528 | 26922 ft | 474 kts | 160° |
| 2026-02-20 23:46 | 54.68117 | 37.80543 | 27373 ft | 475 kts | 165° |
| 2026-02-20 23:46 | 54.64918 | 37.81967 | 27810 ft | 474 kts | 171° |
| 2026-02-20 23:46 | 54.61655 | 37.82874 | 28156 ft | 477 kts | 176° |
| 2026-02-20 23:46 | 54.58345 | 37.83206 | 28497 ft | 477 kts | 182° |
| 2026-02-20 23:47 | 54.55018 | 37.83324 | 28875 ft | 479 kts | 181° |
| 2026-02-20 23:47 | 54.51684 | 37.83499 | 29255 ft | 481 kts | 181° |
| 2026-02-20 23:47 | 54.48331 | 37.84014 | 29499 ft | 488 kts | 173° |
| 2026-02-20 23:47 | 54.45011 | 37.85392 | 29765 ft | 494 kts | 165° |
| 2026-02-20 23:48 | 54.41788 | 37.87486 | 30091 ft | 498 kts | 157° |
| 2026-02-20 23:48 | 54.38720 | 37.90265 | 30451 ft | 498 kts | 153° |
| 2026-02-20 23:48 | 54.35691 | 37.93170 | 30697 ft | 500 kts | 153° |
| 2026-02-20 23:48 | 54.33674 | 37.95111 | 30880 ft | 501 kts | 153° |
| 2026-02-20 23:49 | 54.30634 | 37.98019 | 31197 ft | 501 kts | 153° |
| 2026-02-20 23:49 | 54.27589 | 38.00902 | 31525 ft | 500 kts | 154° |
| 2026-02-20 23:49 | 54.24540 | 38.03759 | 31796 ft | 501 kts | 154° |
| 2026-02-20 23:49 | 54.21474 | 38.06611 | 32053 ft | 502 kts | 154° |
| 2026-02-20 23:50 | 54.18406 | 38.09451 | 32338 ft | 502 kts | 154° |
| 2026-02-20 23:50 | 54.15339 | 38.12283 | 32664 ft | 501 kts | 154° |
| 2026-02-20 23:50 | 54.12271 | 38.15112 | 32902 ft | 502 kts | 155° |
| 2026-02-20 23:51 | 54.06080 | 38.20807 | 33038 ft | 507 kts | 155° |
| 2026-02-20 23:51 | 53.99885 | 38.26495 | 33039 ft | 504 kts | 155° |
| 2026-02-20 23:52 | 53.93714 | 38.32142 | 33054 ft | 503 kts | 155° |
| 2026-02-20 23:52 | 53.87547 | 38.37764 | 33058 ft | 504 kts | 155° |
| 2026-02-20 23:53 | 53.81370 | 38.43378 | 33061 ft | 504 kts | 155° |
| 2026-02-20 23:53 | 53.75248 | 38.49059 | 33067 ft | 507 kts | 151° |
| 2026-02-20 23:54 | 53.69568 | 38.56227 | 33075 ft | 512 kts | 142° |
| 2026-02-20 23:54 | 53.64106 | 38.63969 | 33076 ft | 513 kts | 143° |
| 2026-02-20 23:55 | 53.58595 | 38.71639 | 33077 ft | 514 kts | 143° |
| 2026-02-20 23:55 | 53.53055 | 38.79257 | 33083 ft | 515 kts | 143° |
| 2026-02-20 23:56 | 53.47498 | 38.86868 | 33081 ft | 515 kts | 144° |
| 2026-02-20 23:56 | 53.41539 | 38.93371 | 33089 ft | 509 kts | 156° |
| 2026-02-20 23:57 | 53.35087 | 38.98100 | 33095 ft | 505 kts | 162° |
| 2026-02-20 23:57 | 53.28573 | 39.02535 | 33095 ft | 506 kts | 162° |
| 2026-02-20 23:58 | 53.22064 | 39.07022 | 33095 ft | 507 kts | 161° |
| 2026-02-20 23:58 | 53.15592 | 39.11512 | 33109 ft | 507 kts | 161° |
| 2026-02-20 23:59 | 53.09077 | 39.16023 | 33105 ft | 507 kts | 162° |
| 2026-02-20 23:59 | 53.02547 | 39.20527 | 33120 ft | 508 kts | 162° |
| 2026-02-21 00:00 | 52.96007 | 39.25019 | 33122 ft | 509 kts | 162° |
| 2026-02-21 00:00 | 52.89454 | 39.29506 | 33123 ft | 510 kts | 162° |
| 2026-02-21 00:01 | 52.82898 | 39.33980 | 33123 ft | 510 kts | 162° |
| 2026-02-21 00:01 | 52.76334 | 39.38445 | 33134 ft | 510 kts | 162° |
| 2026-02-21 00:02 | 52.69763 | 39.42900 | 33125 ft | 511 kts | 162° |
| 2026-02-21 00:02 | 52.63234 | 39.47313 | 33128 ft | 511 kts | 163° |
| 2026-02-21 00:03 | 52.56649 | 39.51749 | 33127 ft | 512 kts | 163° |
| 2026-02-21 00:03 | 52.50055 | 39.56180 | 33139 ft | 512 kts | 163° |
| 2026-02-21 00:04 | 52.43466 | 39.60674 | 33134 ft | 515 kts | 160° |
| 2026-02-21 00:04 | 52.37041 | 39.65957 | 33149 ft | 517 kts | 158° |
| 2026-02-21 00:05 | 52.30622 | 39.71301 | 33158 ft | 518 kts | 158° |
| 2026-02-21 00:05 | 52.24187 | 39.76593 | 33160 ft | 518 kts | 159° |
| 2026-02-21 00:06 | 52.17746 | 39.81848 | 33168 ft | 517 kts | 159° |
| 2026-02-21 00:06 | 52.11308 | 39.87083 | 33168 ft | 517 kts | 159° |
| 2026-02-21 00:07 | 52.04916 | 39.92269 | 33172 ft | 516 kts | 159° |
| 2026-02-21 00:07 | 51.98491 | 39.97465 | 33183 ft | 516 kts | 159° |
| 2026-02-21 00:08 | 51.92068 | 40.02658 | 33180 ft | 516 kts | 159° |
| 2026-02-21 00:08 | 51.85646 | 40.07838 | 33188 ft | 515 kts | 159° |
| 2026-02-21 00:09 | 51.79223 | 40.12983 | 33194 ft | 515 kts | 160° |
| 2026-02-21 00:09 | 51.72800 | 40.18111 | 33197 ft | 515 kts | 159° |
| 2026-02-21 00:10 | 51.66634 | 40.24143 | 33205 ft | 521 kts | 152° |
| 2026-02-21 00:10 | 51.60581 | 40.30588 | 33208 ft | 521 kts | 153° |
| 2026-02-21 00:11 | 51.54482 | 40.36895 | 33210 ft | 521 kts | 154° |
| 2026-02-21 00:11 | 51.48350 | 40.43125 | 33213 ft | 521 kts | 154° |
| 2026-02-21 00:12 | 51.42223 | 40.49373 | 33219 ft | 522 kts | 154° |
| 2026-02-21 00:12 | 51.36098 | 40.55629 | 33219 ft | 522 kts | 154° |
| 2026-02-21 00:13 | 51.30269 | 40.62569 | 33221 ft | 531 kts | 144° |
| 2026-02-21 00:13 | 51.25090 | 40.71106 | 33236 ft | 536 kts | 138° |
| 2026-02-21 00:14 | 51.20032 | 40.79867 | 33227 ft | 536 kts | 138° |
| 2026-02-21 00:14 | 51.14931 | 40.88518 | 33238 ft | 536 kts | 139° |
| 2026-02-21 00:15 | 51.09791 | 40.97153 | 33238 ft | 536 kts | 139° |
| 2026-02-21 00:15 | 51.04660 | 41.05751 | 33253 ft | 536 kts | 139° |
| 2026-02-21 00:16 | 50.99523 | 41.14322 | 33245 ft | 536 kts | 139° |
| 2026-02-21 00:16 | 50.94376 | 41.22883 | 33260 ft | 536 kts | 140° |
| 2026-02-21 00:17 | 50.89222 | 41.31432 | 33262 ft | 536 kts | 140° |
| 2026-02-21 00:17 | 50.84060 | 41.39963 | 33253 ft | 537 kts | 140° |
| 2026-02-21 00:18 | 50.78888 | 41.48483 | 33258 ft | 537 kts | 140° |
| 2026-02-21 00:18 | 50.73744 | 41.56930 | 33252 ft | 537 kts | 140° |
| 2026-02-21 00:19 | 50.68561 | 41.65413 | 33256 ft | 537 kts | 140° |
| 2026-02-21 00:19 | 50.63374 | 41.73886 | 33258 ft | 537 kts | 140° |
| 2026-02-21 00:20 | 50.58187 | 41.82365 | 33263 ft | 538 kts | 141° |
| 2026-02-21 00:20 | 50.52991 | 41.90833 | 33255 ft | 538 kts | 141° |
| 2026-02-21 00:21 | 50.47782 | 41.99291 | 33254 ft | 538 kts | 141° |
| 2026-02-21 00:21 | 50.42570 | 42.07725 | 33260 ft | 539 kts | 141° |
| 2026-02-21 00:22 | 50.37345 | 42.16153 | 33259 ft | 539 kts | 141° |
| 2026-02-21 00:22 | 50.31947 | 42.24193 | 33264 ft | 533 kts | 146° |
| 2026-02-21 00:23 | 50.26386 | 42.31881 | 33268 ft | 533 kts | 147° |
| 2026-02-21 00:23 | 50.20856 | 42.39504 | 33253 ft | 534 kts | 147° |
| 2026-02-21 00:24 | 50.15296 | 42.47198 | 33264 ft | 535 kts | 147° |
| 2026-02-21 00:24 | 50.09728 | 42.54902 | 33252 ft | 535 kts | 147° |
| 2026-02-21 00:25 | 50.04155 | 42.62587 | 33250 ft | 535 kts | 147° |
| 2026-02-21 00:25 | 49.98576 | 42.70252 | 33254 ft | 536 kts | 148° |
| 2026-02-21 00:26 | 49.92986 | 42.77906 | 33249 ft | 536 kts | 148° |
| 2026-02-21 00:26 | 49.84576 | 42.89375 | 33238 ft | 536 kts | 148° |
| 2026-02-21 00:27 | 49.78969 | 42.96992 | 33257 ft | 536 kts | 148° |
| 2026-02-21 00:27 | 49.73351 | 43.04598 | 33249 ft | 537 kts | 148° |
| 2026-02-21 00:28 | 49.67728 | 43.12188 | 33242 ft | 537 kts | 148° |
| 2026-02-21 00:28 | 49.62106 | 43.19751 | 33248 ft | 536 kts | 148° |
| 2026-02-21 00:29 | 49.56474 | 43.27304 | 33240 ft | 536 kts | 148° |
| 2026-02-21 00:29 | 49.50890 | 43.34771 | 33238 ft | 535 kts | 148° |
| 2026-02-21 00:30 | 49.45262 | 43.42271 | 33235 ft | 535 kts | 148° |
| 2026-02-21 00:30 | 49.39639 | 43.49740 | 33238 ft | 534 kts | 149° |
| 2026-02-21 00:31 | 49.34017 | 43.57186 | 33249 ft | 534 kts | 149° |
| 2026-02-21 00:31 | 49.28394 | 43.64613 | 33238 ft | 534 kts | 149° |
| 2026-02-21 00:32 | 49.22790 | 43.72102 | 33232 ft | 536 kts | 147° |
| 2026-02-21 00:32 | 49.17300 | 43.79865 | 33232 ft | 538 kts | 146° |
| 2026-02-21 00:33 | 49.11822 | 43.87648 | 33221 ft | 538 kts | 146° |
| 2026-02-21 00:33 | 49.06316 | 43.95368 | 33222 ft | 537 kts | 147° |
| 2026-02-21 00:34 | 49.00803 | 44.03038 | 33220 ft | 537 kts | 147° |
| 2026-02-21 00:34 | 48.95284 | 44.10693 | 33222 ft | 537 kts | 147° |
| 2026-02-21 00:35 | 48.89808 | 44.18272 | 33226 ft | 536 kts | 147° |
| 2026-02-21 00:35 | 48.84285 | 44.25895 | 33222 ft | 536 kts | 147° |
| 2026-02-21 00:36 | 48.78946 | 44.33864 | 33227 ft | 545 kts | 138° |
| 2026-02-21 00:36 | 48.74460 | 44.43228 | 33235 ft | 555 kts | 127° |
| 2026-02-21 00:37 | 48.70600 | 44.53345 | 33227 ft | 554 kts | 126° |
| 2026-02-21 00:37 | 48.66695 | 44.63387 | 33226 ft | 552 kts | 127° |
| 2026-02-21 00:38 | 48.62745 | 44.73325 | 33223 ft | 550 kts | 127° |
| 2026-02-21 00:38 | 48.58807 | 44.83227 | 33222 ft | 549 kts | 127° |
| 2026-02-21 00:39 | 48.54866 | 44.93117 | 33224 ft | 548 kts | 128° |
| 2026-02-21 00:39 | 48.51595 | 45.01300 | 33230 ft | 548 kts | 128° |
| 2026-02-21 00:40 | 48.47650 | 45.11134 | 33225 ft | 548 kts | 128° |
| 2026-02-21 00:40 | 48.43113 | 45.19979 | 33241 ft | 516 kts | 153° |
| 2026-02-21 00:41 | 48.40101 | 45.22635 | 33252 ft | 491 kts | 170° |
| 2026-02-21 00:41 | 48.36896 | 45.24013 | 33253 ft | 473 kts | 182° |
| 2026-02-21 00:41 | 48.30440 | 45.24594 | 33237 ft | 457 kts | 197° |
| 2026-02-21 00:42 | 48.27427 | 45.23603 | 33241 ft | 434 kts | 210° |
| 2026-02-21 00:42 | 48.24566 | 45.22104 | 33232 ft | 437 kts | 210° |
| 2026-02-21 00:42 | 48.18805 | 45.19163 | 33238 ft | 443 kts | 208° |
| 2026-02-21 00:43 | 48.12987 | 45.16350 | 33222 ft | 435 kts | 208° |
| 2026-02-21 00:43 | 48.07224 | 45.13600 | 33223 ft | 435 kts | 206° |
| 2026-02-21 00:44 | 48.04169 | 45.12892 | 33225 ft | 457 kts | 192° |
| 2026-02-21 00:44 | 48.00934 | 45.13254 | 33237 ft | 477 kts | 181° |
| 2026-02-21 00:44 | 47.97674 | 45.14609 | 33215 ft | 498 kts | 167° |
| 2026-02-21 00:44 | 47.94529 | 45.16883 | 33248 ft | 505 kts | 163° |
| 2026-02-21 00:45 | 47.88270 | 45.21789 | 33238 ft | 510 kts | 163° |
| 2026-02-21 00:45 | 47.81967 | 45.26678 | 33243 ft | 511 kts | 163° |
| 2026-02-21 00:46 | 47.75620 | 45.31454 | 33235 ft | 511 kts | 164° |
| 2026-02-21 00:46 | 47.69253 | 45.36180 | 33233 ft | 511 kts | 164° |
| 2026-02-21 00:47 | 47.62892 | 45.40889 | 33240 ft | 510 kts | 164° |
| 2026-02-21 00:47 | 47.56539 | 45.45586 | 33244 ft | 510 kts | 164° |
| 2026-02-21 00:48 | 47.50189 | 45.50271 | 33258 ft | 510 kts | 164° |
| 2026-02-21 00:48 | 47.43880 | 45.54913 | 33250 ft | 510 kts | 164° |
| 2026-02-21 00:49 | 47.37527 | 45.59574 | 33250 ft | 510 kts | 165° |
| 2026-02-21 00:49 | 47.31164 | 45.64232 | 33255 ft | 510 kts | 165° |
| 2026-02-21 00:50 | 47.24796 | 45.68881 | 33254 ft | 511 kts | 165° |
| 2026-02-21 00:50 | 47.18428 | 45.73522 | 33260 ft | 511 kts | 165° |
| 2026-02-21 00:51 | 47.12059 | 45.78164 | 33263 ft | 511 kts | 165° |
| 2026-02-21 00:51 | 47.05685 | 45.82802 | 33276 ft | 511 kts | 165° |
| 2026-02-21 00:52 | 46.99312 | 45.87425 | 33270 ft | 511 kts | 165° |
| 2026-02-21 00:52 | 46.92932 | 45.92039 | 33269 ft | 511 kts | 165° |
| 2026-02-21 00:53 | 46.86568 | 45.96631 | 33270 ft | 510 kts | 165° |
| 2026-02-21 00:53 | 46.80201 | 46.01211 | 33277 ft | 509 kts | 164° |
| 2026-02-21 00:54 | 46.73847 | 46.05770 | 33280 ft | 509 kts | 164° |
| 2026-02-21 00:55 | 46.64352 | 46.12560 | 33284 ft | 509 kts | 164° |
| 2026-02-21 00:55 | 46.58001 | 46.17087 | 33288 ft | 508 kts | 164° |
| 2026-02-21 00:56 | 46.51643 | 46.21608 | 33291 ft | 508 kts | 164° |
| 2026-02-21 00:56 | 46.45292 | 46.26111 | 33290 ft | 508 kts | 164° |
| 2026-02-21 00:57 | 46.38932 | 46.30608 | 33294 ft | 508 kts | 164° |
| 2026-02-21 00:57 | 46.32578 | 46.35091 | 33293 ft | 508 kts | 164° |
| 2026-02-21 00:58 | 46.26221 | 46.39565 | 33291 ft | 508 kts | 164° |
| 2026-02-21 00:58 | 46.19855 | 46.44032 | 33293 ft | 508 kts | 164° |
| 2026-02-21 00:59 | 46.13489 | 46.48491 | 33301 ft | 509 kts | 164° |
| 2026-02-21 00:59 | 46.07123 | 46.52938 | 33303 ft | 509 kts | 163° |
| 2026-02-21 01:00 | 46.00755 | 46.57392 | 33297 ft | 509 kts | 163° |
| 2026-02-21 01:00 | 45.94381 | 46.61839 | 33306 ft | 509 kts | 163° |
| 2026-02-21 01:01 | 45.88018 | 46.66288 | 33309 ft | 509 kts | 163° |
| 2026-02-21 01:01 | 45.81656 | 46.70736 | 33311 ft | 508 kts | 163° |
| 2026-02-21 01:02 | 45.75300 | 46.75168 | 33314 ft | 508 kts | 163° |
| 2026-02-21 01:02 | 45.68987 | 46.79554 | 33321 ft | 507 kts | 163° |
| 2026-02-21 01:03 | 45.62622 | 46.83927 | 33313 ft | 507 kts | 163° |
| 2026-02-21 01:03 | 45.56264 | 46.88274 | 33316 ft | 506 kts | 163° |
| 2026-02-21 01:04 | 45.49919 | 46.92611 | 33314 ft | 506 kts | 163° |
| 2026-02-21 01:04 | 45.43580 | 46.96968 | 33315 ft | 506 kts | 163° |
| 2026-02-21 01:05 | 45.37249 | 47.01320 | 33322 ft | 505 kts | 163° |
| 2026-02-21 01:05 | 45.30918 | 47.05658 | 33331 ft | 505 kts | 163° |
| 2026-02-21 01:06 | 45.24577 | 47.09990 | 33322 ft | 505 kts | 162° |
| 2026-02-21 01:06 | 45.18235 | 47.14312 | 33322 ft | 505 kts | 163° |
| 2026-02-21 01:07 | 45.11896 | 47.18622 | 33320 ft | 506 kts | 162° |
| 2026-02-21 01:07 | 45.05550 | 47.22926 | 33318 ft | 506 kts | 162° |
| 2026-02-21 01:08 | 44.99203 | 47.27220 | 33318 ft | 506 kts | 162° |
| 2026-02-21 01:08 | 44.92852 | 47.31510 | 33319 ft | 506 kts | 162° |
| 2026-02-21 01:09 | 44.86502 | 47.35790 | 33315 ft | 506 kts | 162° |
| 2026-02-21 01:09 | 44.80147 | 47.40064 | 33320 ft | 506 kts | 162° |
| 2026-02-21 01:10 | 44.73838 | 47.44295 | 33312 ft | 506 kts | 162° |
| 2026-02-21 01:10 | 44.67483 | 47.48548 | 33311 ft | 506 kts | 162° |
| 2026-02-21 01:11 | 44.61125 | 47.52792 | 33309 ft | 506 kts | 162° |
| 2026-02-21 01:11 | 44.54770 | 47.57026 | 33315 ft | 506 kts | 162° |
| 2026-02-21 01:12 | 44.48409 | 47.61255 | 33310 ft | 506 kts | 162° |
| 2026-02-21 01:12 | 44.42049 | 47.65492 | 33315 ft | 506 kts | 162° |
| 2026-02-21 01:13 | 44.35689 | 47.69727 | 33312 ft | 506 kts | 162° |
| 2026-02-21 01:13 | 44.29332 | 47.73949 | 33310 ft | 506 kts | 162° |
| 2026-02-21 01:14 | 44.22971 | 47.78160 | 33309 ft | 506 kts | 162° |
| 2026-02-21 01:14 | 44.16617 | 47.82358 | 33309 ft | 505 kts | 162° |
| 2026-02-21 01:15 | 44.10259 | 47.86548 | 33307 ft | 505 kts | 162° |
| 2026-02-21 01:15 | 44.03910 | 47.90721 | 33311 ft | 505 kts | 162° |
| 2026-02-21 01:16 | 43.97561 | 47.94885 | 33313 ft | 505 kts | 162° |
| 2026-02-21 01:16 | 43.91212 | 47.99039 | 33307 ft | 504 kts | 162° |
| 2026-02-21 01:17 | 43.84914 | 48.03150 | 33305 ft | 504 kts | 162° |
| 2026-02-21 01:17 | 43.78570 | 48.07281 | 33305 ft | 504 kts | 162° |
| 2026-02-21 01:18 | 43.72226 | 48.11402 | 33305 ft | 504 kts | 162° |
| 2026-02-21 01:18 | 43.65883 | 48.15514 | 33304 ft | 504 kts | 162° |
| 2026-02-21 01:19 | 43.59530 | 48.19621 | 33304 ft | 504 kts | 162° |
| 2026-02-21 01:19 | 43.53173 | 48.23722 | 33304 ft | 504 kts | 161° |
| 2026-02-21 01:20 | 43.46811 | 48.27817 | 33303 ft | 504 kts | 161° |
| 2026-02-21 01:20 | 43.40455 | 48.31900 | 33298 ft | 504 kts | 161° |
| 2026-02-21 01:21 | 43.34101 | 48.35972 | 33299 ft | 503 kts | 161° |
| 2026-02-21 01:21 | 43.27755 | 48.40030 | 33296 ft | 503 kts | 161° |
| 2026-02-21 01:22 | 43.21482 | 48.44313 | 33290 ft | 508 kts | 155° |
| 2026-02-21 01:22 | 43.15551 | 48.49620 | 33292 ft | 509 kts | 152° |
| 2026-02-21 01:23 | 43.09643 | 48.54983 | 33292 ft | 509 kts | 153° |
| 2026-02-21 01:23 | 43.03729 | 48.60271 | 33290 ft | 508 kts | 153° |
| 2026-02-21 01:24 | 42.97839 | 48.65492 | 33290 ft | 507 kts | 153° |
| 2026-02-21 01:24 | 42.91906 | 48.70738 | 33288 ft | 507 kts | 153° |
| 2026-02-21 01:25 | 42.85986 | 48.75966 | 33289 ft | 507 kts | 153° |
| 2026-02-21 01:25 | 42.80064 | 48.81185 | 33288 ft | 507 kts | 153° |
| 2026-02-21 01:26 | 42.75142 | 48.85511 | 33283 ft | 507 kts | 153° |
| 2026-02-21 01:26 | 42.69160 | 48.90555 | 33285 ft | 505 kts | 155° |
| 2026-02-21 01:27 | 42.63145 | 48.95497 | 33278 ft | 505 kts | 155° |
| 2026-02-21 01:27 | 42.57122 | 49.00460 | 33273 ft | 506 kts | 154° |
| 2026-02-21 01:28 | 42.51112 | 49.05430 | 33268 ft | 506 kts | 154° |
| 2026-02-21 01:28 | 42.45094 | 49.10401 | 33278 ft | 507 kts | 154° |
| 2026-02-21 01:29 | 42.39069 | 49.15364 | 33273 ft | 507 kts | 154° |
| 2026-02-21 01:29 | 42.33047 | 49.20312 | 33265 ft | 507 kts | 154° |
| 2026-02-21 01:30 | 42.27018 | 49.25256 | 33265 ft | 506 kts | 154° |
| 2026-02-21 01:30 | 42.20798 | 49.29526 | 33263 ft | 497 kts | 165° |
| 2026-02-21 01:31 | 42.14280 | 49.32451 | 33260 ft | 493 kts | 168° |
| 2026-02-21 01:31 | 42.07748 | 49.35305 | 33253 ft | 494 kts | 168° |
| 2026-02-21 01:32 | 42.01261 | 49.38185 | 33250 ft | 494 kts | 167° |
| 2026-02-21 01:32 | 41.94734 | 49.41104 | 33253 ft | 494 kts | 167° |
| 2026-02-21 01:33 | 41.88201 | 49.44024 | 33246 ft | 495 kts | 167° |
| 2026-02-21 01:33 | 41.81657 | 49.46940 | 33243 ft | 495 kts | 167° |
| 2026-02-21 01:34 | 41.75106 | 49.49851 | 33244 ft | 496 kts | 167° |
| 2026-02-21 01:34 | 41.65277 | 49.54206 | 33240 ft | 497 kts | 167° |
| 2026-02-21 01:35 | 41.58755 | 49.57089 | 33236 ft | 497 kts | 167° |
| 2026-02-21 01:35 | 41.52188 | 49.59985 | 33239 ft | 497 kts | 167° |
| 2026-02-21 01:36 | 41.45613 | 49.62878 | 33248 ft | 497 kts | 167° |
| 2026-02-21 01:36 | 41.39040 | 49.65765 | 33244 ft | 497 kts | 167° |
| 2026-02-21 01:37 | 41.32466 | 49.68646 | 33240 ft | 497 kts | 167° |
| 2026-02-21 01:37 | 41.25894 | 49.71520 | 33238 ft | 497 kts | 167° |
| 2026-02-21 01:38 | 41.19327 | 49.74386 | 33238 ft | 497 kts | 167° |
| 2026-02-21 01:38 | 41.12759 | 49.77247 | 33243 ft | 496 kts | 167° |
| 2026-02-21 01:39 | 41.06242 | 49.80065 | 33245 ft | 496 kts | 167° |
| 2026-02-21 01:39 | 40.99676 | 49.82871 | 33247 ft | 495 kts | 167° |
| 2026-02-21 01:40 | 40.93116 | 49.85670 | 33257 ft | 495 kts | 167° |
| 2026-02-21 01:40 | 40.86562 | 49.88465 | 33260 ft | 495 kts | 167° |
| 2026-02-21 01:41 | 40.80001 | 49.91259 | 33264 ft | 495 kts | 167° |
| 2026-02-21 01:41 | 40.73454 | 49.94041 | 33273 ft | 494 kts | 167° |
| 2026-02-21 01:42 | 40.66907 | 49.96818 | 33282 ft | 494 kts | 167° |
| 2026-02-21 01:42 | 40.60408 | 49.99567 | 33291 ft | 494 kts | 167° |
| 2026-02-21 01:43 | 40.53866 | 50.02331 | 33295 ft | 494 kts | 167° |
| 2026-02-21 01:43 | 40.47327 | 50.05088 | 33292 ft | 494 kts | 168° |
| 2026-02-21 01:44 | 40.40774 | 50.07771 | 33292 ft | 493 kts | 168° |
| 2026-02-21 01:44 | 40.34218 | 50.10399 | 33297 ft | 493 kts | 168° |
| 2026-02-21 01:45 | 40.27657 | 50.13031 | 33303 ft | 493 kts | 168° |
| 2026-02-21 01:45 | 40.21087 | 50.15673 | 33313 ft | 493 kts | 168° |
| 2026-02-21 01:46 | 40.14517 | 50.18312 | 33322 ft | 494 kts | 168° |
| 2026-02-21 01:46 | 40.07949 | 50.20945 | 33326 ft | 494 kts | 168° |
| 2026-02-21 01:47 | 40.01379 | 50.23573 | 33328 ft | 494 kts | 168° |
| 2026-02-21 01:47 | 39.94801 | 50.26199 | 33334 ft | 494 kts | 168° |
| 2026-02-21 01:48 | 39.88229 | 50.28818 | 33329 ft | 494 kts | 168° |
| 2026-02-21 01:48 | 39.81649 | 50.31435 | 33338 ft | 494 kts | 168° |
| 2026-02-21 01:49 | 39.75113 | 50.34038 | 33335 ft | 494 kts | 168° |
| 2026-02-21 01:49 | 39.68541 | 50.36656 | 33336 ft | 494 kts | 168° |
| 2026-02-21 01:50 | 39.61956 | 50.39273 | 33339 ft | 494 kts | 168° |
| 2026-02-21 01:50 | 39.55378 | 50.41881 | 33342 ft | 495 kts | 168° |
| 2026-02-21 01:51 | 39.48791 | 50.44488 | 33344 ft | 495 kts | 168° |
| 2026-02-21 01:51 | 39.42204 | 50.47089 | 33345 ft | 495 kts | 168° |
| 2026-02-21 01:52 | 39.35603 | 50.49690 | 33347 ft | 495 kts | 168° |
| 2026-02-21 01:52 | 39.29010 | 50.52284 | 33346 ft | 496 kts | 168° |
| 2026-02-21 01:53 | 39.22405 | 50.54877 | 33351 ft | 496 kts | 168° |
| 2026-02-21 01:53 | 39.15798 | 50.57466 | 33343 ft | 496 kts | 168° |
| 2026-02-21 01:54 | 39.09193 | 50.60049 | 33341 ft | 496 kts | 168° |
| 2026-02-21 01:54 | 39.02581 | 50.62630 | 33345 ft | 497 kts | 168° |
| 2026-02-21 01:55 | 38.95959 | 50.65210 | 33345 ft | 497 kts | 168° |
| 2026-02-21 01:55 | 38.89339 | 50.67785 | 33343 ft | 497 kts | 169° |
| 2026-02-21 01:56 | 38.82712 | 50.70345 | 33343 ft | 497 kts | 169° |
| 2026-02-21 01:56 | 38.76082 | 50.72881 | 33344 ft | 498 kts | 169° |
| 2026-02-21 01:57 | 38.69444 | 50.75415 | 33347 ft | 498 kts | 169° |
| 2026-02-21 01:57 | 38.62844 | 50.77935 | 33347 ft | 498 kts | 169° |
| 2026-02-21 01:58 | 38.56198 | 50.80468 | 33346 ft | 499 kts | 169° |
| 2026-02-21 01:58 | 38.49544 | 50.83000 | 33346 ft | 499 kts | 169° |
| 2026-02-21 01:59 | 38.42886 | 50.85528 | 33346 ft | 499 kts | 169° |
| 2026-02-21 01:59 | 38.36223 | 50.88053 | 33344 ft | 499 kts | 169° |
| 2026-02-21 02:00 | 38.29558 | 50.90574 | 33341 ft | 500 kts | 169° |
| 2026-02-21 02:00 | 38.22894 | 50.93090 | 33338 ft | 500 kts | 169° |
| 2026-02-21 02:01 | 38.16220 | 50.95605 | 33347 ft | 500 kts | 169° |
| 2026-02-21 02:01 | 38.09547 | 50.98115 | 33339 ft | 500 kts | 169° |
| 2026-02-21 02:02 | 38.02866 | 51.00624 | 33351 ft | 501 kts | 169° |
| 2026-02-21 02:02 | 37.96222 | 51.03048 | 33344 ft | 499 kts | 171° |
| 2026-02-21 02:03 | 37.89504 | 51.05299 | 33340 ft | 499 kts | 171° |
| 2026-02-21 02:03 | 37.82788 | 51.07547 | 33343 ft | 499 kts | 171° |
| 2026-02-21 02:04 | 37.76074 | 51.09824 | 33341 ft | 499 kts | 171° |
| 2026-02-21 02:04 | 37.69362 | 51.12094 | 33336 ft | 499 kts | 171° |
| 2026-02-21 02:05 | 37.62647 | 51.14357 | 33337 ft | 499 kts | 171° |
| 2026-02-21 02:05 | 37.55926 | 51.16618 | 33331 ft | 500 kts | 171° |
| 2026-02-21 02:06 | 37.49250 | 51.18861 | 33335 ft | 500 kts | 171° |
| 2026-02-21 02:06 | 37.42528 | 51.21115 | 33327 ft | 500 kts | 171° |
| 2026-02-21 02:07 | 37.35799 | 51.23368 | 33334 ft | 500 kts | 171° |
| 2026-02-21 02:07 | 37.29067 | 51.25618 | 33332 ft | 501 kts | 171° |
| 2026-02-21 02:08 | 37.22324 | 51.27867 | 33332 ft | 501 kts | 171° |
| 2026-02-21 02:08 | 37.15573 | 51.30115 | 33331 ft | 502 kts | 171° |
| 2026-02-21 02:09 | 37.08817 | 51.32360 | 33332 ft | 502 kts | 171° |
| 2026-02-21 02:09 | 37.02056 | 51.34604 | 33335 ft | 503 kts | 171° |
| 2026-02-21 02:10 | 36.95294 | 51.36843 | 33327 ft | 503 kts | 172° |
| 2026-02-21 02:10 | 36.88513 | 51.39084 | 33309 ft | 504 kts | 172° |
| 2026-02-21 02:11 | 36.81731 | 51.41323 | 33300 ft | 504 kts | 172° |
| 2026-02-21 02:11 | 36.74944 | 51.43559 | 33287 ft | 505 kts | 172° |
| 2026-02-21 02:12 | 36.68200 | 51.46121 | 33286 ft | 512 kts | 163° |
| 2026-02-21 02:12 | 36.61868 | 51.50271 | 33292 ft | 523 kts | 151° |
| 2026-02-21 02:13 | 36.55957 | 51.55632 | 33288 ft | 527 kts | 148° |
| 2026-02-21 02:13 | 36.50080 | 51.61087 | 33276 ft | 528 kts | 148° |
| 2026-02-21 02:14 | 36.45128 | 51.65627 | 33275 ft | 527 kts | 148° |
| 2026-02-21 02:14 | 36.39239 | 51.70966 | 33263 ft | 527 kts | 149° |
| 2026-02-21 02:15 | 36.33303 | 51.76318 | 33260 ft | 527 kts | 149° |
| 2026-02-21 02:15 | 36.27358 | 51.81670 | 33258 ft | 528 kts | 149° |
| 2026-02-21 02:16 | 36.21404 | 51.87023 | 33251 ft | 528 kts | 149° |
| 2026-02-21 02:16 | 36.15456 | 51.92365 | 33232 ft | 528 kts | 149° |
| 2026-02-21 02:17 | 36.09516 | 51.97689 | 33231 ft | 528 kts | 149° |
| 2026-02-21 02:17 | 36.03579 | 52.02998 | 33242 ft | 526 kts | 149° |
| 2026-02-21 02:18 | 35.97645 | 52.08295 | 33259 ft | 527 kts | 149° |
| 2026-02-21 02:18 | 35.91689 | 52.13600 | 33255 ft | 529 kts | 149° |
| 2026-02-21 02:19 | 35.85721 | 52.18907 | 33263 ft | 529 kts | 150° |
| 2026-02-21 02:19 | 35.79744 | 52.24211 | 33259 ft | 529 kts | 150° |
| 2026-02-21 02:20 | 35.73768 | 52.29506 | 33253 ft | 529 kts | 150° |
| 2026-02-21 02:20 | 35.67822 | 52.34764 | 33266 ft | 529 kts | 150° |
| 2026-02-21 02:21 | 35.61839 | 52.40047 | 33270 ft | 529 kts | 150° |
| 2026-02-21 02:21 | 35.55852 | 52.45321 | 33270 ft | 530 kts | 150° |
| 2026-02-21 02:22 | 35.49856 | 52.50591 | 33275 ft | 530 kts | 150° |
| 2026-02-21 02:22 | 35.43856 | 52.55858 | 33274 ft | 531 kts | 150° |
| 2026-02-21 02:23 | 35.37844 | 52.61126 | 33286 ft | 532 kts | 150° |
| 2026-02-21 02:23 | 35.31824 | 52.66392 | 33284 ft | 532 kts | 150° |
| 2026-02-21 02:24 | 35.25677 | 52.71339 | 33300 ft | 524 kts | 158° |
| 2026-02-21 02:24 | 35.19122 | 52.74894 | 33306 ft | 514 kts | 167° |
| 2026-02-21 02:25 | 35.12364 | 52.77768 | 33311 ft | 515 kts | 167° |
| 2026-02-21 02:25 | 35.05601 | 52.80664 | 33322 ft | 516 kts | 167° |
| 2026-02-21 02:26 | 34.98821 | 52.83609 | 33317 ft | 517 kts | 167° |
| 2026-02-21 02:27 | 34.88639 | 52.88052 | 33313 ft | 519 kts | 167° |
| 2026-02-21 02:27 | 34.81838 | 52.91012 | 33320 ft | 519 kts | 167° |
| 2026-02-21 02:28 | 34.75019 | 52.93971 | 33315 ft | 519 kts | 167° |
| 2026-02-21 02:28 | 34.68219 | 52.96916 | 33317 ft | 519 kts | 167° |
| 2026-02-21 02:29 | 34.61410 | 52.99860 | 33318 ft | 519 kts | 167° |
| 2026-02-21 02:29 | 34.54611 | 53.02794 | 33322 ft | 519 kts | 167° |
| 2026-02-21 02:30 | 34.47805 | 53.05727 | 33324 ft | 519 kts | 167° |
| 2026-02-21 02:30 | 34.40990 | 53.08658 | 33323 ft | 519 kts | 167° |
| 2026-02-21 02:31 | 34.34225 | 53.11562 | 33326 ft | 520 kts | 167° |
| 2026-02-21 02:31 | 34.27409 | 53.14484 | 33327 ft | 520 kts | 167° |
| 2026-02-21 02:32 | 34.20583 | 53.17405 | 33327 ft | 520 kts | 167° |
| 2026-02-21 02:32 | 34.13754 | 53.20322 | 33323 ft | 521 kts | 167° |
| 2026-02-21 02:33 | 34.06916 | 53.23238 | 33326 ft | 521 kts | 167° |
| 2026-02-21 02:33 | 34.00078 | 53.26150 | 33318 ft | 521 kts | 167° |
| 2026-02-21 02:34 | 33.93241 | 53.29056 | 33318 ft | 521 kts | 167° |
| 2026-02-21 02:34 | 33.86396 | 53.31960 | 33317 ft | 521 kts | 167° |
| 2026-02-21 02:35 | 33.79598 | 53.34839 | 33319 ft | 521 kts | 167° |
| 2026-02-21 02:35 | 33.72757 | 53.37732 | 33313 ft | 522 kts | 167° |
| 2026-02-21 02:36 | 33.65908 | 53.40625 | 33311 ft | 522 kts | 167° |
| 2026-02-21 02:36 | 33.59096 | 53.43690 | 33300 ft | 528 kts | 161° |
| 2026-02-21 02:37 | 33.52723 | 53.48223 | 33301 ft | 538 kts | 149° |
| 2026-02-21 02:37 | 33.47012 | 53.54125 | 33301 ft | 543 kts | 142° |
| 2026-02-21 02:38 | 33.41395 | 53.60176 | 33301 ft | 543 kts | 143° |
| 2026-02-21 02:38 | 33.36112 | 53.66705 | 33296 ft | 550 kts | 133° |
| 2026-02-21 02:39 | 33.31660 | 53.74186 | 33302 ft | 553 kts | 128° |
| 2026-02-21 02:39 | 33.27273 | 53.81736 | 33296 ft | 553 kts | 129° |
| 2026-02-21 02:40 | 33.22779 | 53.89174 | 33282 ft | 549 kts | 134° |
| 2026-02-21 02:40 | 33.20097 | 53.92345 | 33289 ft | 538 kts | 148° |
| 2026-02-21 02:40 | 33.16985 | 53.94761 | 33304 ft | 530 kts | 159° |
| 2026-02-21 02:41 | 33.10126 | 53.97459 | 33307 ft | 515 kts | 176° |
| 2026-02-21 02:41 | 33.03085 | 53.99047 | 33298 ft | 521 kts | 176° |
| 2026-02-21 02:42 | 32.95916 | 54.00806 | 33275 ft | 520 kts | 175° |
| 2026-02-21 02:42 | 32.88939 | 54.02586 | 33277 ft | 515 kts | 175° |
| 2026-02-21 02:43 | 32.81918 | 54.04374 | 33282 ft | 517 kts | 174° |
| 2026-02-21 02:43 | 32.74886 | 54.06242 | 33280 ft | 518 kts | 174° |
| 2026-02-21 02:44 | 32.67851 | 54.08119 | 33274 ft | 519 kts | 174° |
| 2026-02-21 02:44 | 32.60801 | 54.09985 | 33274 ft | 519 kts | 174° |
| 2026-02-21 02:45 | 32.53739 | 54.11845 | 33274 ft | 520 kts | 174° |
| 2026-02-21 02:45 | 32.46680 | 54.13702 | 33271 ft | 520 kts | 174° |
| 2026-02-21 02:46 | 32.39609 | 54.15560 | 33262 ft | 521 kts | 174° |
| 2026-02-21 02:46 | 32.32532 | 54.17394 | 33269 ft | 521 kts | 175° |
| 2026-02-21 02:47 | 32.25447 | 54.19203 | 33269 ft | 521 kts | 175° |
| 2026-02-21 02:47 | 32.18360 | 54.21012 | 33290 ft | 521 kts | 175° |
| 2026-02-21 02:48 | 32.11312 | 54.22815 | 33310 ft | 521 kts | 175° |
| 2026-02-21 02:48 | 32.04224 | 54.24625 | 33327 ft | 521 kts | 175° |
| 2026-02-21 02:49 | 31.97140 | 54.26432 | 33344 ft | 521 kts | 175° |
| 2026-02-21 02:49 | 31.90083 | 54.28547 | 33356 ft | 528 kts | 168° |
| 2026-02-21 02:50 | 31.83300 | 54.32056 | 33349 ft | 537 kts | 158° |
| 2026-02-21 02:50 | 31.76686 | 54.36160 | 33325 ft | 537 kts | 158° |
| 2026-02-21 02:51 | 31.70056 | 54.40227 | 33307 ft | 537 kts | 159° |
| 2026-02-21 02:51 | 31.63408 | 54.44233 | 33287 ft | 537 kts | 159° |
| 2026-02-21 02:52 | 31.56752 | 54.48227 | 33274 ft | 537 kts | 159° |
| 2026-02-21 02:52 | 31.50105 | 54.52217 | 33274 ft | 536 kts | 159° |
| 2026-02-21 02:53 | 31.43509 | 54.56171 | 33275 ft | 536 kts | 159° |
| 2026-02-21 02:53 | 31.36868 | 54.60140 | 33279 ft | 536 kts | 159° |
| 2026-02-21 02:54 | 31.30223 | 54.64106 | 33276 ft | 536 kts | 159° |
| 2026-02-21 02:54 | 31.23574 | 54.68070 | 33274 ft | 536 kts | 159° |
| 2026-02-21 02:55 | 31.16923 | 54.72030 | 33271 ft | 536 kts | 159° |
| 2026-02-21 02:55 | 31.10267 | 54.75986 | 33274 ft | 536 kts | 159° |
| 2026-02-21 02:56 | 31.03619 | 54.79931 | 33268 ft | 536 kts | 159° |
| 2026-02-21 02:56 | 30.96973 | 54.83870 | 33267 ft | 535 kts | 159° |
| 2026-02-21 02:57 | 30.90335 | 54.87796 | 33278 ft | 535 kts | 159° |
| 2026-02-21 02:57 | 30.83695 | 54.91719 | 33279 ft | 535 kts | 159° |
| 2026-02-21 02:58 | 30.77065 | 54.95630 | 33289 ft | 535 kts | 159° |
| 2026-02-21 02:58 | 30.70427 | 54.99532 | 33285 ft | 534 kts | 159° |
| 2026-02-21 02:59 | 30.63835 | 55.03395 | 33289 ft | 534 kts | 159° |
| 2026-02-21 02:59 | 30.57202 | 55.07277 | 33284 ft | 534 kts | 159° |
| 2026-02-21 03:00 | 30.50568 | 55.11157 | 33283 ft | 534 kts | 159° |
| 2026-02-21 03:00 | 30.43935 | 55.15029 | 33287 ft | 533 kts | 159° |
| 2026-02-21 03:01 | 30.37301 | 55.18897 | 33285 ft | 533 kts | 159° |
| 2026-02-21 03:01 | 30.30671 | 55.22756 | 33288 ft | 533 kts | 159° |
| 2026-02-21 03:02 | 30.24045 | 55.26608 | 33296 ft | 533 kts | 159° |
| 2026-02-21 03:02 | 30.18538 | 55.29805 | 33285 ft | 533 kts | 159° |
| 2026-02-21 03:03 | 30.11913 | 55.33645 | 33280 ft | 532 kts | 159° |
| 2026-02-21 03:03 | 30.05291 | 55.37479 | 33289 ft | 532 kts | 159° |
| 2026-02-21 03:04 | 29.98673 | 55.41298 | 33289 ft | 532 kts | 159° |
| 2026-02-21 03:04 | 29.92050 | 55.45108 | 33287 ft | 532 kts | 159° |
| 2026-02-21 03:05 | 29.85422 | 55.48918 | 33291 ft | 532 kts | 159° |
| 2026-02-21 03:05 | 29.78789 | 55.52726 | 33296 ft | 533 kts | 159° |
| 2026-02-21 03:06 | 29.72151 | 55.56533 | 33292 ft | 533 kts | 159° |
| 2026-02-21 03:06 | 29.65515 | 55.60333 | 33288 ft | 532 kts | 159° |
| 2026-02-21 03:07 | 29.58887 | 55.64121 | 33288 ft | 532 kts | 160° |
| 2026-02-21 03:07 | 29.52071 | 55.67228 | 33275 ft | 521 kts | 171° |
| 2026-02-21 03:08 | 29.45074 | 55.69314 | 33282 ft | 520 kts | 172° |
| 2026-02-21 03:08 | 29.38065 | 55.71393 | 33270 ft | 520 kts | 172° |
| 2026-02-21 03:09 | 29.31106 | 55.73509 | 33264 ft | 521 kts | 171° |
| 2026-02-21 03:09 | 29.24103 | 55.75659 | 33255 ft | 521 kts | 171° |
| 2026-02-21 03:10 | 29.17103 | 55.77805 | 33252 ft | 521 kts | 171° |
| 2026-02-21 03:10 | 29.10103 | 55.79943 | 33246 ft | 521 kts | 171° |
| 2026-02-21 03:11 | 29.03104 | 55.82077 | 33248 ft | 520 kts | 171° |
| 2026-02-21 03:11 | 28.96109 | 55.84208 | 33233 ft | 520 kts | 171° |
| 2026-02-21 03:12 | 28.89119 | 55.86334 | 33227 ft | 520 kts | 172° |
| 2026-02-21 03:12 | 28.82129 | 55.88450 | 33221 ft | 519 kts | 172° |
| 2026-02-21 03:13 | 28.75142 | 55.90548 | 33218 ft | 519 kts | 172° |
| 2026-02-21 03:13 | 28.68158 | 55.92642 | 33212 ft | 518 kts | 172° |
| 2026-02-21 03:14 | 28.61185 | 55.94733 | 33210 ft | 518 kts | 172° |
| 2026-02-21 03:14 | 28.54270 | 55.96805 | 33213 ft | 517 kts | 172° |
| 2026-02-21 03:15 | 28.47317 | 55.98885 | 33208 ft | 516 kts | 172° |
| 2026-02-21 03:15 | 28.40364 | 56.00962 | 33204 ft | 516 kts | 172° |
| 2026-02-21 03:16 | 28.33411 | 56.03036 | 33204 ft | 516 kts | 172° |
| 2026-02-21 03:16 | 28.26465 | 56.05105 | 33204 ft | 516 kts | 172° |
| 2026-02-21 03:17 | 28.19515 | 56.07173 | 33198 ft | 516 kts | 172° |
| 2026-02-21 03:17 | 28.12563 | 56.09240 | 33192 ft | 516 kts | 172° |
| 2026-02-21 03:18 | 28.05617 | 56.11309 | 33162 ft | 516 kts | 172° |
| 2026-02-21 03:18 | 27.98675 | 56.13378 | 33179 ft | 516 kts | 172° |
| 2026-02-21 03:19 | 27.91729 | 56.15443 | 33159 ft | 517 kts | 172° |
| 2026-02-21 03:19 | 27.84779 | 56.17507 | 33151 ft | 516 kts | 172° |
| 2026-02-21 03:20 | 27.77833 | 56.19566 | 33140 ft | 516 kts | 172° |
| 2026-02-21 03:20 | 27.70935 | 56.21609 | 33130 ft | 515 kts | 172° |
| 2026-02-21 03:21 | 27.64005 | 56.23659 | 33124 ft | 515 kts | 172° |
| 2026-02-21 03:21 | 27.57073 | 56.25706 | 33119 ft | 515 kts | 172° |
| 2026-02-21 03:22 | 27.50137 | 56.27751 | 33084 ft | 516 kts | 172° |
| 2026-02-21 03:22 | 27.43200 | 56.29795 | 33071 ft | 515 kts | 172° |
| 2026-02-21 03:23 | 27.36277 | 56.31833 | 33073 ft | 514 kts | 172° |
| 2026-02-21 03:23 | 27.25887 | 56.34884 | 33078 ft | 513 kts | 173° |
| 2026-02-21 03:24 | 27.22411 | 56.35570 | 33074 ft | 501 kts | 184° |
| 2026-02-21 03:24 | 27.18973 | 56.35483 | 33082 ft | 490 kts | 194° |
| 2026-02-21 03:24 | 27.12542 | 56.33540 | 33086 ft | 471 kts | 210° |
| 2026-02-21 03:25 | 27.06509 | 56.30604 | 33076 ft | 474 kts | 210° |
| 2026-02-21 03:25 | 27.00415 | 56.27702 | 33083 ft | 477 kts | 209° |
| 2026-02-21 03:26 | 26.94277 | 56.24839 | 33084 ft | 478 kts | 209° |
| 2026-02-21 03:26 | 26.88121 | 56.21984 | 33076 ft | 479 kts | 209° |
| 2026-02-21 03:27 | 26.81972 | 56.19130 | 33078 ft | 478 kts | 209° |
| 2026-02-21 03:27 | 26.75873 | 56.16301 | 33080 ft | 477 kts | 209° |
| 2026-02-21 03:28 | 26.69529 | 56.13941 | 33086 ft | 484 kts | 201° |
| 2026-02-21 03:28 | 26.63002 | 56.12083 | 33084 ft | 484 kts | 201° |
| 2026-02-21 03:29 | 26.56483 | 56.10212 | 33082 ft | 484 kts | 201° |
| 2026-02-21 03:29 | 26.49965 | 56.08309 | 33090 ft | 483 kts | 201° |
| 2026-02-21 03:30 | 26.43458 | 56.06404 | 33098 ft | 484 kts | 201° |
| 2026-02-21 03:30 | 26.36943 | 56.04500 | 33097 ft | 484 kts | 201° |
| 2026-02-21 03:31 | 26.30430 | 56.02600 | 33103 ft | 484 kts | 201° |
| 2026-02-21 03:31 | 26.23801 | 56.01054 | 33105 ft | 491 kts | 194° |
| 2026-02-21 03:32 | 26.17002 | 56.00158 | 33102 ft | 492 kts | 193° |
| 2026-02-21 03:32 | 26.10197 | 55.99247 | 33101 ft | 492 kts | 194° |
| 2026-02-21 03:33 | 26.03444 | 55.98301 | 33110 ft | 492 kts | 194° |
| 2026-02-21 03:33 | 25.96625 | 55.97460 | 33102 ft | 496 kts | 189° |
| 2026-02-21 03:34 | 25.89655 | 55.97711 | 33117 ft | 504 kts | 182° |
| 2026-02-21 03:34 | 25.82666 | 55.98334 | 33113 ft | 504 kts | 182° |
| 2026-02-21 03:35 | 25.75667 | 55.98927 | 33128 ft | 504 kts | 182° |
| 2026-02-21 03:35 | 25.68660 | 55.99483 | 33133 ft | 504 kts | 182° |
| 2026-02-21 03:36 | 25.61655 | 56.00029 | 33127 ft | 504 kts | 182° |
| 2026-02-21 03:36 | 25.54654 | 56.00576 | 33128 ft | 504 kts | 182° |
| 2026-02-21 03:37 | 25.47647 | 56.01126 | 33117 ft | 505 kts | 182° |
| 2026-02-21 03:37 | 25.40643 | 56.01674 | 33114 ft | 504 kts | 182° |
| 2026-02-21 03:38 | 25.33641 | 56.02222 | 33109 ft | 504 kts | 182° |
| 2026-02-21 03:38 | 25.26686 | 56.02765 | 33105 ft | 504 kts | 182° |
| 2026-02-21 03:39 | 25.16171 | 56.03958 | 33103 ft | 508 kts | 178° |
| 2026-02-21 03:40 | 25.09166 | 56.05041 | 33104 ft | 508 kts | 178° |
| 2026-02-21 03:40 | 25.02157 | 56.06089 | 33100 ft | 508 kts | 178° |
| 2026-02-21 03:41 | 24.95155 | 56.07114 | 33114 ft | 508 kts | 178° |
| 2026-02-21 03:41 | 24.88151 | 56.08137 | 33114 ft | 508 kts | 178° |
| 2026-02-21 03:42 | 24.81147 | 56.09161 | 33124 ft | 508 kts | 178° |
| 2026-02-21 03:42 | 24.74146 | 56.10182 | 33125 ft | 508 kts | 178° |
| 2026-02-21 03:43 | 24.67131 | 56.11205 | 33140 ft | 508 kts | 178° |
| 2026-02-21 03:43 | 24.60285 | 56.13340 | 33134 ft | 523 kts | 159° |
| 2026-02-21 03:44 | 24.54343 | 56.18001 | 33148 ft | 539 kts | 137° |
| 2026-02-21 03:44 | 24.49591 | 56.24415 | 33151 ft | 543 kts | 130° |
| 2026-02-21 03:45 | 24.44960 | 56.30963 | 33140 ft | 542 kts | 133° |
| 2026-02-21 03:45 | 24.40084 | 56.37256 | 33140 ft | 541 kts | 135° |
| 2026-02-21 03:46 | 24.35135 | 56.43464 | 33131 ft | 540 kts | 134° |
| 2026-02-21 03:46 | 24.30224 | 56.49696 | 33135 ft | 539 kts | 133° |
| 2026-02-21 03:47 | 24.25714 | 56.56269 | 33134 ft | 540 kts | 129° |
| 2026-02-21 03:47 | 24.21338 | 56.62963 | 33130 ft | 539 kts | 129° |
| 2026-02-21 03:48 | 24.16948 | 56.69619 | 33133 ft | 539 kts | 129° |
| 2026-02-21 03:48 | 24.12564 | 56.76204 | 33132 ft | 539 kts | 129° |
| 2026-02-21 03:49 | 24.08119 | 56.82871 | 33128 ft | 538 kts | 129° |
| 2026-02-21 03:49 | 24.03708 | 56.89484 | 33136 ft | 538 kts | 129° |
| 2026-02-21 03:50 | 23.99301 | 56.96047 | 33134 ft | 538 kts | 129° |
| 2026-02-21 03:50 | 23.94861 | 57.02640 | 33128 ft | 538 kts | 129° |
| 2026-02-21 03:51 | 23.91144 | 57.08161 | 33129 ft | 538 kts | 129° |
| 2026-02-21 03:51 | 23.86735 | 57.14707 | 33133 ft | 538 kts | 129° |
| 2026-02-21 03:52 | 23.82310 | 57.21289 | 33130 ft | 538 kts | 129° |
| 2026-02-21 03:52 | 23.77881 | 57.27871 | 33134 ft | 537 kts | 129° |
| 2026-02-21 03:53 | 23.73458 | 57.34434 | 33133 ft | 537 kts | 129° |
| 2026-02-21 03:53 | 23.68956 | 57.40928 | 33136 ft | 536 kts | 131° |
| 2026-02-21 03:54 | 23.64298 | 57.47267 | 33137 ft | 535 kts | 131° |
| 2026-02-21 03:54 | 23.59650 | 57.53603 | 33138 ft | 535 kts | 131° |
| 2026-02-21 03:55 | 23.55024 | 57.59971 | 33142 ft | 535 kts | 131° |
| 2026-02-21 03:55 | 23.50406 | 57.66329 | 33143 ft | 535 kts | 131° |
| 2026-02-21 03:56 | 23.45767 | 57.72686 | 33146 ft | 535 kts | 131° |
| 2026-02-21 03:56 | 23.41114 | 57.79025 | 33150 ft | 535 kts | 131° |
| 2026-02-21 03:57 | 23.36497 | 57.85313 | 33155 ft | 536 kts | 131° |
| 2026-02-21 03:57 | 23.31846 | 57.91647 | 33134 ft | 536 kts | 131° |
| 2026-02-21 03:58 | 23.27190 | 57.97981 | 33139 ft | 535 kts | 131° |
| 2026-02-21 03:58 | 23.22675 | 58.04423 | 33131 ft | 536 kts | 127° |
| 2026-02-21 03:59 | 23.18482 | 58.11129 | 33149 ft | 536 kts | 126° |
| 2026-02-21 03:59 | 23.14296 | 58.17839 | 33131 ft | 536 kts | 127° |
| 2026-02-21 04:00 | 23.10081 | 58.24519 | 33136 ft | 536 kts | 127° |
| 2026-02-21 04:00 | 23.05856 | 58.31193 | 33134 ft | 536 kts | 127° |
| 2026-02-21 04:01 | 23.01043 | 58.37287 | 33142 ft | 530 kts | 140° |
| 2026-02-21 04:01 | 22.95244 | 58.42120 | 33127 ft | 523 kts | 152° |
| 2026-02-21 04:02 | 22.89046 | 58.46131 | 33133 ft | 522 kts | 153° |
| 2026-02-21 04:02 | 22.82804 | 58.50180 | 33123 ft | 523 kts | 152° |
| 2026-02-21 04:03 | 22.76583 | 58.54291 | 33128 ft | 524 kts | 152° |
| 2026-02-21 04:03 | 22.70366 | 58.58410 | 33127 ft | 524 kts | 152° |
| 2026-02-21 04:04 | 22.64137 | 58.62523 | 33125 ft | 524 kts | 152° |
| 2026-02-21 04:04 | 22.57911 | 58.66628 | 33127 ft | 524 kts | 152° |
| 2026-02-21 04:05 | 22.51691 | 58.70730 | 33125 ft | 523 kts | 152° |
| 2026-02-21 04:05 | 22.45489 | 58.74816 | 33131 ft | 521 kts | 152° |
| 2026-02-21 04:06 | 22.39296 | 58.78891 | 33127 ft | 521 kts | 152° |
| 2026-02-21 04:06 | 22.33100 | 58.82964 | 33123 ft | 521 kts | 152° |
| 2026-02-21 04:07 | 22.26913 | 58.87028 | 33123 ft | 521 kts | 152° |
| 2026-02-21 04:07 | 22.20762 | 58.91061 | 33126 ft | 521 kts | 152° |
| 2026-02-21 04:08 | 22.14561 | 58.95117 | 33125 ft | 521 kts | 152° |
| 2026-02-21 04:08 | 22.08358 | 58.99169 | 33114 ft | 521 kts | 152° |
| 2026-02-21 04:09 | 22.02157 | 59.03219 | 33120 ft | 521 kts | 152° |
| 2026-02-21 04:09 | 21.95952 | 59.07268 | 33118 ft | 521 kts | 152° |
| 2026-02-21 04:10 | 21.89742 | 59.11316 | 33112 ft | 521 kts | 152° |
| 2026-02-21 04:10 | 21.83538 | 59.15356 | 33111 ft | 521 kts | 152° |
| 2026-02-21 04:11 | 21.77337 | 59.19390 | 33102 ft | 521 kts | 152° |
| 2026-02-21 04:11 | 21.71173 | 59.23395 | 33103 ft | 520 kts | 152° |
| 2026-02-21 04:12 | 21.64976 | 59.27420 | 33099 ft | 520 kts | 152° |
| 2026-02-21 04:12 | 21.58777 | 59.31440 | 33093 ft | 520 kts | 152° |
| 2026-02-21 04:13 | 21.52580 | 59.35461 | 33092 ft | 520 kts | 152° |
| 2026-02-21 04:13 | 21.46388 | 59.39477 | 33088 ft | 520 kts | 152° |
| 2026-02-21 04:14 | 21.40202 | 59.43486 | 33085 ft | 520 kts | 152° |
| 2026-02-21 04:14 | 21.34005 | 59.47499 | 33086 ft | 520 kts | 152° |
| 2026-02-21 04:15 | 21.27811 | 59.51505 | 33080 ft | 520 kts | 152° |
| 2026-02-21 04:15 | 21.21620 | 59.55505 | 33083 ft | 520 kts | 152° |
| 2026-02-21 04:16 | 21.15421 | 59.59508 | 33079 ft | 520 kts | 152° |
| 2026-02-21 04:16 | 21.09222 | 59.63509 | 33078 ft | 520 kts | 152° |
| 2026-02-21 04:17 | 21.03062 | 59.67483 | 33075 ft | 520 kts | 152° |
| 2026-02-21 04:17 | 20.96852 | 59.71479 | 33082 ft | 521 kts | 152° |
| 2026-02-21 04:18 | 20.92693 | 59.74144 | 33084 ft | 521 kts | 152° |
| 2026-02-21 04:18 | 20.91642 | 59.74817 | 33082 ft | 521 kts | 153° |
| 2026-02-21 04:19 | 20.78194 | 59.83425 | 33078 ft | 521 kts | 153° |
| 2026-02-21 04:19 | 20.71970 | 59.87406 | 33074 ft | 521 kts | 153° |
| 2026-02-21 04:20 | 20.65744 | 59.91384 | 33076 ft | 521 kts | 153° |
| 2026-02-21 04:20 | 20.59518 | 59.95358 | 33070 ft | 521 kts | 153° |
| 2026-02-21 04:21 | 20.53290 | 59.99329 | 33070 ft | 522 kts | 153° |
| 2026-02-21 04:21 | 20.47052 | 60.03303 | 33071 ft | 522 kts | 153° |
| 2026-02-21 04:22 | 20.40860 | 60.07244 | 33069 ft | 522 kts | 153° |
| 2026-02-21 04:22 | 20.34622 | 60.11211 | 33069 ft | 522 kts | 153° |
| 2026-02-21 04:23 | 20.28392 | 60.15169 | 33066 ft | 522 kts | 153° |
| 2026-02-21 04:23 | 20.22149 | 60.19132 | 33068 ft | 522 kts | 153° |
| 2026-02-21 04:24 | 20.15908 | 60.23090 | 33065 ft | 521 kts | 153° |
| 2026-02-21 04:24 | 20.09674 | 60.27040 | 33067 ft | 521 kts | 153° |
| 2026-02-21 04:25 | 20.03594 | 60.31266 | 33065 ft | 525 kts | 145° |
| 2026-02-21 04:25 | 19.98101 | 60.36412 | 33065 ft | 526 kts | 141° |
| 2026-02-21 04:26 | 19.92689 | 60.41660 | 33064 ft | 526 kts | 141° |
| 2026-02-21 04:26 | 19.87289 | 60.46843 | 33064 ft | 526 kts | 141° |
| 2026-02-21 04:27 | 19.81829 | 60.52033 | 33072 ft | 526 kts | 141° |
| 2026-02-21 04:27 | 19.76376 | 60.57198 | 33055 ft | 526 kts | 141° |
| 2026-02-21 04:28 | 19.70920 | 60.62364 | 33056 ft | 525 kts | 141° |
| 2026-02-21 04:28 | 19.65463 | 60.67528 | 33051 ft | 525 kts | 141° |
| 2026-02-21 04:29 | 19.60017 | 60.72679 | 33064 ft | 525 kts | 141° |
| 2026-02-21 04:29 | 19.54559 | 60.77837 | 33063 ft | 524 kts | 141° |
| 2026-02-21 04:30 | 19.49113 | 60.82978 | 33059 ft | 524 kts | 141° |
| 2026-02-21 04:30 | 19.43693 | 60.88089 | 33057 ft | 524 kts | 141° |
| 2026-02-21 04:31 | 19.38244 | 60.93223 | 33060 ft | 524 kts | 141° |
| 2026-02-21 04:31 | 19.32789 | 60.98358 | 33053 ft | 524 kts | 141° |
| 2026-02-21 04:32 | 19.27338 | 61.03484 | 33073 ft | 524 kts | 141° |
| 2026-02-21 04:32 | 19.21894 | 61.08600 | 33049 ft | 523 kts | 141° |
| 2026-02-21 04:33 | 19.16450 | 61.13711 | 33051 ft | 523 kts | 141° |
| 2026-02-21 04:33 | 19.11011 | 61.18811 | 33059 ft | 522 kts | 141° |
| 2026-02-21 04:34 | 19.05583 | 61.23897 | 33056 ft | 521 kts | 141° |
| 2026-02-21 04:34 | 19.00154 | 61.28979 | 33055 ft | 521 kts | 141° |
| 2026-02-21 04:35 | 18.94732 | 61.34051 | 33055 ft | 521 kts | 141° |
| 2026-02-21 04:35 | 18.89301 | 61.39125 | 33055 ft | 521 kts | 141° |
| 2026-02-21 04:36 | 18.83879 | 61.44187 | 33052 ft | 520 kts | 141° |
| 2026-02-21 04:36 | 18.78450 | 61.49251 | 33053 ft | 520 kts | 141° |
| 2026-02-21 04:37 | 18.73027 | 61.54305 | 33055 ft | 520 kts | 141° |
| 2026-02-21 04:37 | 18.67643 | 61.59318 | 33047 ft | 519 kts | 141° |
| 2026-02-21 04:38 | 18.62223 | 61.64359 | 33053 ft | 519 kts | 141° |
| 2026-02-21 04:38 | 18.56801 | 61.69399 | 33052 ft | 519 kts | 141° |
| 2026-02-21 04:39 | 18.52302 | 61.73578 | 33050 ft | 519 kts | 141° |
| 2026-02-21 04:39 | 18.46886 | 61.78603 | 33052 ft | 519 kts | 141° |
| 2026-02-21 04:40 | 18.41469 | 61.83625 | 33053 ft | 518 kts | 141° |
| 2026-02-21 04:40 | 18.36055 | 61.88641 | 33051 ft | 518 kts | 141° |
| 2026-02-21 04:41 | 18.30646 | 61.93647 | 33054 ft | 518 kts | 141° |
| 2026-02-21 04:41 | 18.25239 | 61.98647 | 33049 ft | 517 kts | 141° |
| 2026-02-21 04:42 | 18.19865 | 62.03612 | 33052 ft | 517 kts | 141° |
| 2026-02-21 04:42 | 18.14467 | 62.08595 | 33049 ft | 517 kts | 141° |
| 2026-02-21 04:43 | 18.09059 | 62.13583 | 33048 ft | 516 kts | 141° |
| 2026-02-21 04:43 | 18.03660 | 62.18559 | 33053 ft | 516 kts | 141° |
| 2026-02-21 04:44 | 17.98260 | 62.23531 | 33051 ft | 516 kts | 141° |
| 2026-02-21 04:44 | 17.92864 | 62.28495 | 33051 ft | 516 kts | 141° |
| 2026-02-21 04:45 | 17.87468 | 62.33455 | 33046 ft | 516 kts | 141° |
| 2026-02-21 04:45 | 17.82067 | 62.38416 | 33048 ft | 516 kts | 141° |
| 2026-02-21 04:46 | 17.76664 | 62.43374 | 33049 ft | 516 kts | 141° |
| 2026-02-21 04:46 | 17.71261 | 62.48328 | 33050 ft | 516 kts | 141° |
| 2026-02-21 04:47 | 17.63152 | 62.55756 | 33053 ft | 516 kts | 141° |
| 2026-02-21 04:47 | 17.57780 | 62.60671 | 33049 ft | 516 kts | 141° |
| 2026-02-21 04:48 | 17.52370 | 62.65617 | 33051 ft | 516 kts | 141° |
| 2026-02-21 04:48 | 17.46947 | 62.70572 | 33048 ft | 516 kts | 141° |
| 2026-02-21 04:49 | 17.41532 | 62.75514 | 33050 ft | 516 kts | 141° |
| 2026-02-21 04:49 | 17.36118 | 62.80452 | 33049 ft | 516 kts | 141° |
| 2026-02-21 04:50 | 17.30704 | 62.85386 | 33046 ft | 516 kts | 141° |
| 2026-02-21 04:50 | 17.25281 | 62.90324 | 33044 ft | 516 kts | 141° |
| 2026-02-21 04:51 | 17.19864 | 62.95253 | 33045 ft | 516 kts | 141° |
| 2026-02-21 04:51 | 17.14486 | 63.00143 | 33046 ft | 516 kts | 141° |
| 2026-02-21 04:52 | 17.09065 | 63.05068 | 33048 ft | 516 kts | 141° |
| 2026-02-21 04:52 | 17.03649 | 63.09985 | 33048 ft | 516 kts | 141° |
| 2026-02-21 04:53 | 16.98203 | 63.14878 | 33047 ft | 515 kts | 142° |
| 2026-02-21 04:53 | 16.92681 | 63.19658 | 33047 ft | 515 kts | 142° |
| 2026-02-21 04:54 | 16.87149 | 63.24411 | 33046 ft | 515 kts | 142° |
| 2026-02-21 04:54 | 16.81621 | 63.29182 | 33048 ft | 515 kts | 142° |
| 2026-02-21 04:55 | 16.76107 | 63.33954 | 33046 ft | 515 kts | 142° |
| 2026-02-21 04:55 | 16.70630 | 63.38695 | 33046 ft | 515 kts | 142° |
| 2026-02-21 04:56 | 16.65122 | 63.43458 | 33048 ft | 514 kts | 142° |
| 2026-02-21 04:56 | 16.59614 | 63.48216 | 33049 ft | 514 kts | 142° |
| 2026-02-21 04:57 | 16.54096 | 63.52977 | 33047 ft | 514 kts | 142° |
| 2026-02-21 04:57 | 16.48593 | 63.57723 | 33045 ft | 513 kts | 142° |
| 2026-02-21 04:58 | 16.43090 | 63.62465 | 33051 ft | 513 kts | 142° |
| 2026-02-21 04:58 | 16.37594 | 63.67197 | 33046 ft | 512 kts | 142° |
| 2026-02-21 04:59 | 16.32100 | 63.71924 | 33048 ft | 512 kts | 142° |
| 2026-02-21 04:59 | 16.26614 | 63.76641 | 33045 ft | 511 kts | 142° |
| 2026-02-21 05:00 | 16.21133 | 63.81350 | 33047 ft | 511 kts | 142° |
| 2026-02-21 05:00 | 16.15689 | 63.86024 | 33048 ft | 510 kts | 142° |
| 2026-02-21 05:01 | 16.10217 | 63.90719 | 33046 ft | 510 kts | 142° |
| 2026-02-21 05:01 | 16.04748 | 63.95407 | 33048 ft | 509 kts | 142° |
| 2026-02-21 05:02 | 15.99286 | 64.00085 | 33046 ft | 509 kts | 142° |
| 2026-02-21 05:02 | 15.93826 | 64.04759 | 33045 ft | 508 kts | 141° |
| 2026-02-21 05:03 | 15.88370 | 64.09426 | 33041 ft | 508 kts | 141° |
| 2026-02-21 05:03 | 15.82917 | 64.14087 | 33043 ft | 508 kts | 141° |
| 2026-02-21 05:04 | 15.77461 | 64.18746 | 33043 ft | 507 kts | 141° |
| 2026-02-21 05:04 | 15.72012 | 64.23397 | 33042 ft | 507 kts | 141° |
| 2026-02-21 05:05 | 15.66592 | 64.28020 | 33043 ft | 507 kts | 141° |
| 2026-02-21 05:05 | 15.61133 | 64.32672 | 33042 ft | 507 kts | 141° |
| 2026-02-21 05:06 | 15.55677 | 64.37319 | 33036 ft | 507 kts | 141° |
| 2026-02-21 05:06 | 15.50219 | 64.41964 | 33040 ft | 507 kts | 141° |
| 2026-02-21 05:07 | 15.44773 | 64.46596 | 33036 ft | 507 kts | 141° |
| 2026-02-21 05:07 | 15.39317 | 64.51233 | 33039 ft | 507 kts | 141° |
| 2026-02-21 05:08 | 15.33859 | 64.55868 | 33036 ft | 507 kts | 141° |
| 2026-02-21 05:08 | 15.28405 | 64.60497 | 33035 ft | 506 kts | 141° |
| 2026-02-21 05:09 | 15.22952 | 64.65122 | 33036 ft | 506 kts | 141° |
| 2026-02-21 05:09 | 15.17504 | 64.69739 | 33036 ft | 506 kts | 141° |
| 2026-02-21 05:10 | 15.12087 | 64.74327 | 33035 ft | 506 kts | 141° |
| 2026-02-21 05:10 | 15.06635 | 64.78941 | 33035 ft | 506 kts | 141° |
| 2026-02-21 05:11 | 15.01177 | 64.83558 | 33035 ft | 506 kts | 141° |
| 2026-02-21 05:11 | 14.95721 | 64.88169 | 33033 ft | 506 kts | 141° |
| 2026-02-21 05:12 | 14.90278 | 64.92767 | 33034 ft | 506 kts | 141° |
| 2026-02-21 05:12 | 14.84809 | 64.97384 | 33031 ft | 506 kts | 141° |
| 2026-02-21 05:13 | 14.79350 | 65.01988 | 33027 ft | 506 kts | 141° |
| 2026-02-21 05:13 | 14.73896 | 65.06586 | 33024 ft | 506 kts | 141° |
| 2026-02-21 05:14 | 14.68468 | 65.11160 | 33024 ft | 506 kts | 141° |
| 2026-02-21 05:14 | 14.63008 | 65.15757 | 33025 ft | 506 kts | 141° |
| 2026-02-21 05:15 | 14.57554 | 65.20346 | 33021 ft | 506 kts | 141° |
| 2026-02-21 05:15 | 14.52095 | 65.24932 | 33020 ft | 506 kts | 141° |
| 2026-02-21 05:16 | 14.46641 | 65.29511 | 33018 ft | 505 kts | 141° |
| 2026-02-21 05:16 | 14.41184 | 65.34092 | 33019 ft | 505 kts | 141° |
| 2026-02-21 05:17 | 14.35729 | 65.38669 | 33018 ft | 505 kts | 141° |
| 2026-02-21 05:17 | 14.30311 | 65.43212 | 33015 ft | 505 kts | 141° |
| 2026-02-21 05:18 | 14.24860 | 65.47780 | 33017 ft | 505 kts | 141° |
| 2026-02-21 05:18 | 14.19407 | 65.52346 | 33015 ft | 504 kts | 141° |
| 2026-02-21 05:19 | 14.13960 | 65.56905 | 33016 ft | 504 kts | 141° |
| 2026-02-21 05:19 | 14.08517 | 65.61457 | 33017 ft | 504 kts | 141° |
| 2026-02-21 05:20 | 14.03078 | 65.66003 | 33014 ft | 503 kts | 141° |
| 2026-02-21 05:20 | 13.97637 | 65.70547 | 33017 ft | 503 kts | 141° |
| 2026-02-21 05:21 | 13.92234 | 65.75057 | 33013 ft | 503 kts | 141° |
| 2026-02-21 05:21 | 13.86797 | 65.79594 | 33010 ft | 503 kts | 141° |
| 2026-02-21 05:22 | 13.81360 | 65.84126 | 33011 ft | 503 kts | 141° |
| 2026-02-21 05:22 | 13.75924 | 65.88656 | 33012 ft | 503 kts | 141° |
| 2026-02-21 05:23 | 13.70484 | 65.93185 | 33007 ft | 503 kts | 141° |
| 2026-02-21 05:23 | 13.65040 | 65.97716 | 33009 ft | 503 kts | 141° |
| 2026-02-21 05:24 | 13.59603 | 66.02238 | 33006 ft | 503 kts | 141° |
| 2026-02-21 05:24 | 13.54157 | 66.06764 | 33006 ft | 503 kts | 141° |
| 2026-02-21 05:25 | 13.48708 | 66.11290 | 33007 ft | 503 kts | 141° |
| 2026-02-21 05:25 | 13.43266 | 66.15808 | 33008 ft | 503 kts | 141° |
| 2026-02-21 05:26 | 13.37818 | 66.20328 | 33008 ft | 503 kts | 141° |
| 2026-02-21 05:27 | 13.29648 | 66.27101 | 33007 ft | 503 kts | 141° |
| 2026-02-21 05:27 | 13.24194 | 66.31620 | 33006 ft | 504 kts | 141° |
| 2026-02-21 05:28 | 13.18772 | 66.36108 | 33003 ft | 504 kts | 141° |
| 2026-02-21 05:28 | 13.13314 | 66.40625 | 33002 ft | 504 kts | 141° |
| 2026-02-21 05:29 | 13.08768 | 66.44385 | 33004 ft | 504 kts | 141° |
| 2026-02-21 05:29 | 13.03310 | 66.48896 | 33005 ft | 504 kts | 141° |
| 2026-02-21 05:30 | 12.97843 | 66.53412 | 33003 ft | 505 kts | 141° |
| 2026-02-21 05:30 | 12.92373 | 66.57928 | 32999 ft | 505 kts | 141° |
| 2026-02-21 05:31 | 12.86891 | 66.62451 | 33001 ft | 505 kts | 141° |
| 2026-02-21 05:31 | 12.81408 | 66.66972 | 32999 ft | 505 kts | 141° |
| 2026-02-21 05:32 | 12.75928 | 66.71489 | 32998 ft | 506 kts | 140° |
| 2026-02-21 05:32 | 12.70447 | 66.76004 | 32999 ft | 506 kts | 140° |
| 2026-02-21 05:33 | 12.65001 | 66.80487 | 32995 ft | 506 kts | 140° |
| 2026-02-21 05:33 | 12.59501 | 66.85012 | 32998 ft | 506 kts | 140° |
| 2026-02-21 05:34 | 12.54010 | 66.89527 | 32998 ft | 506 kts | 140° |
| 2026-02-21 05:34 | 12.48526 | 66.94034 | 32998 ft | 506 kts | 140° |
| 2026-02-21 05:35 | 12.43039 | 66.98542 | 32996 ft | 505 kts | 140° |
| 2026-02-21 05:35 | 12.37552 | 67.03046 | 32998 ft | 505 kts | 140° |
| 2026-02-21 05:36 | 12.32067 | 67.07545 | 32995 ft | 505 kts | 140° |
| 2026-02-21 05:36 | 12.26583 | 67.12043 | 32994 ft | 505 kts | 140° |
| 2026-02-21 05:37 | 12.21137 | 67.16506 | 32989 ft | 505 kts | 140° |
| 2026-02-21 05:37 | 12.15655 | 67.20997 | 32992 ft | 505 kts | 140° |
| 2026-02-21 05:38 | 12.10171 | 67.25487 | 32992 ft | 504 kts | 140° |
| 2026-02-21 05:38 | 12.04691 | 67.29971 | 32995 ft | 504 kts | 140° |
| 2026-02-21 05:39 | 11.99212 | 67.34454 | 32992 ft | 504 kts | 140° |
| 2026-02-21 05:39 | 11.93737 | 67.38930 | 32993 ft | 504 kts | 140° |
| 2026-02-21 05:40 | 11.88302 | 67.43367 | 32991 ft | 503 kts | 140° |
| 2026-02-21 05:40 | 11.82833 | 67.47829 | 32994 ft | 503 kts | 140° |
| 2026-02-21 05:41 | 11.77374 | 67.52284 | 32987 ft | 502 kts | 140° |
| 2026-02-21 05:41 | 11.71916 | 67.56736 | 32988 ft | 502 kts | 140° |
| 2026-02-21 05:42 | 11.66463 | 67.61182 | 32989 ft | 501 kts | 140° |
| 2026-02-21 05:42 | 11.61021 | 67.65617 | 32985 ft | 501 kts | 140° |
| 2026-02-21 05:43 | 11.55573 | 67.70055 | 32986 ft | 501 kts | 140° |
| 2026-02-21 05:43 | 11.50132 | 67.74484 | 32985 ft | 500 kts | 140° |
| 2026-02-21 05:44 | 11.44693 | 67.78909 | 32983 ft | 500 kts | 140° |
| 2026-02-21 05:44 | 11.39256 | 67.83330 | 32986 ft | 500 kts | 140° |
| 2026-02-21 05:45 | 11.33861 | 67.87715 | 32985 ft | 499 kts | 140° |
| 2026-02-21 05:45 | 11.28430 | 67.92127 | 32982 ft | 498 kts | 140° |
| 2026-02-21 05:46 | 11.23010 | 67.96528 | 32981 ft | 498 kts | 140° |
| 2026-02-21 05:46 | 11.17587 | 68.00930 | 32981 ft | 497 kts | 140° |
| 2026-02-21 05:47 | 11.12181 | 68.05316 | 32980 ft | 497 kts | 140° |
| 2026-02-21 05:47 | 11.06765 | 68.09706 | 32977 ft | 497 kts | 140° |
| 2026-02-21 05:48 | 11.01357 | 68.14089 | 32977 ft | 497 kts | 140° |
| 2026-02-21 05:48 | 10.95976 | 68.18448 | 32974 ft | 497 kts | 140° |
| 2026-02-21 05:49 | 10.90566 | 68.22827 | 32978 ft | 497 kts | 140° |
| 2026-02-21 05:49 | 10.85147 | 68.27212 | 32973 ft | 497 kts | 140° |
| 2026-02-21 05:50 | 10.79734 | 68.31591 | 32974 ft | 497 kts | 140° |
| 2026-02-21 05:50 | 10.74323 | 68.35966 | 32972 ft | 496 kts | 140° |
| 2026-02-21 05:51 | 10.68918 | 68.40334 | 32969 ft | 496 kts | 140° |
| 2026-02-21 05:51 | 10.63509 | 68.44703 | 32969 ft | 496 kts | 140° |
| 2026-02-21 05:52 | 10.58140 | 68.49037 | 32971 ft | 496 kts | 140° |
| 2026-02-21 05:52 | 10.50038 | 68.55574 | 32965 ft | 495 kts | 140° |
| 2026-02-21 05:53 | 10.44642 | 68.59925 | 32967 ft | 495 kts | 140° |
| 2026-02-21 05:53 | 10.39249 | 68.64273 | 32969 ft | 495 kts | 140° |
| 2026-02-21 05:54 | 10.33860 | 68.68614 | 32971 ft | 494 kts | 140° |
| 2026-02-21 05:54 | 10.28470 | 68.72955 | 32968 ft | 494 kts | 140° |
| 2026-02-21 05:55 | 10.23080 | 68.77294 | 32968 ft | 494 kts | 140° |
| 2026-02-21 05:55 | 10.17699 | 68.81623 | 32965 ft | 494 kts | 140° |
| 2026-02-21 05:56 | 10.12299 | 68.85966 | 32961 ft | 494 kts | 140° |
| 2026-02-21 05:56 | 10.06916 | 68.90294 | 32967 ft | 494 kts | 140° |
| 2026-02-21 05:57 | 10.01560 | 68.94597 | 32963 ft | 494 kts | 140° |
| 2026-02-21 05:57 | 9.96172 | 68.98925 | 32962 ft | 494 kts | 140° |
| 2026-02-21 05:58 | 9.90786 | 69.03250 | 32964 ft | 494 kts | 140° |
| 2026-02-21 05:58 | 9.85402 | 69.07571 | 32963 ft | 494 kts | 140° |
| 2026-02-21 05:59 | 9.80013 | 69.11895 | 32962 ft | 494 kts | 140° |
| 2026-02-21 05:59 | 9.74629 | 69.16212 | 32960 ft | 494 kts | 140° |
| 2026-02-21 06:00 | 9.69241 | 69.20528 | 32961 ft | 493 kts | 140° |
| 2026-02-21 06:00 | 9.63851 | 69.24839 | 32958 ft | 493 kts | 140° |
| 2026-02-21 06:01 | 9.58461 | 69.29151 | 32960 ft | 493 kts | 140° |
| 2026-02-21 06:01 | 9.53069 | 69.33463 | 32961 ft | 493 kts | 140° |
| 2026-02-21 06:02 | 9.47678 | 69.37774 | 32960 ft | 493 kts | 140° |
| 2026-02-21 06:02 | 9.42289 | 69.42081 | 32961 ft | 493 kts | 140° |
| 2026-02-21 06:03 | 9.36938 | 69.46357 | 32962 ft | 493 kts | 140° |
| 2026-02-21 06:03 | 9.31539 | 69.50668 | 32953 ft | 493 kts | 140° |
| 2026-02-21 06:04 | 9.26149 | 69.54970 | 32957 ft | 493 kts | 140° |
| 2026-02-21 06:04 | 9.20757 | 69.59273 | 32958 ft | 493 kts | 140° |
| 2026-02-21 06:05 | 9.15366 | 69.63572 | 32954 ft | 493 kts | 140° |
| 2026-02-21 06:05 | 9.09972 | 69.67873 | 32950 ft | 493 kts | 140° |
| 2026-02-21 06:06 | 9.04579 | 69.72171 | 32955 ft | 493 kts | 140° |
| 2026-02-21 06:06 | 8.99222 | 69.76439 | 32950 ft | 494 kts | 140° |
| 2026-02-21 06:07 | 8.93825 | 69.80737 | 32953 ft | 494 kts | 140° |
| 2026-02-21 06:07 | 8.88426 | 69.85034 | 32952 ft | 494 kts | 140° |
| 2026-02-21 06:08 | 8.83028 | 69.89331 | 32948 ft | 494 kts | 140° |
| 2026-02-21 06:08 | 8.77626 | 69.93628 | 32954 ft | 494 kts | 140° |
| 2026-02-21 06:09 | 8.72227 | 69.97920 | 32953 ft | 494 kts | 140° |
| 2026-02-21 06:09 | 8.66825 | 70.02214 | 32951 ft | 494 kts | 140° |
| 2026-02-21 06:10 | 8.61424 | 70.06506 | 32950 ft | 494 kts | 140° |
| 2026-02-21 06:10 | 8.56020 | 70.10797 | 32954 ft | 494 kts | 140° |
| 2026-02-21 06:11 | 8.50613 | 70.15090 | 32949 ft | 494 kts | 140° |
| 2026-02-21 06:11 | 8.45211 | 70.19377 | 32951 ft | 494 kts | 140° |
| 2026-02-21 06:12 | 8.39806 | 70.23666 | 32953 ft | 494 kts | 140° |
| 2026-02-21 06:12 | 8.34404 | 70.27950 | 32950 ft | 494 kts | 140° |
| 2026-02-21 06:13 | 8.29031 | 70.32210 | 32946 ft | 494 kts | 140° |
| 2026-02-21 06:13 | 8.23625 | 70.36493 | 32948 ft | 494 kts | 140° |
| 2026-02-21 06:14 | 8.18222 | 70.40774 | 32950 ft | 493 kts | 140° |
| 2026-02-21 06:14 | 8.12830 | 70.45044 | 32950 ft | 493 kts | 140° |
| 2026-02-21 06:15 | 8.07437 | 70.49314 | 32947 ft | 492 kts | 140° |
| 2026-02-21 06:15 | 8.02957 | 70.52859 | 32948 ft | 492 kts | 140° |
| 2026-02-21 06:16 | 7.97573 | 70.57119 | 32948 ft | 492 kts | 140° |
| 2026-02-21 06:16 | 7.92192 | 70.61374 | 32951 ft | 491 kts | 140° |
| 2026-02-21 06:17 | 7.86811 | 70.65629 | 32949 ft | 491 kts | 140° |
| 2026-02-21 06:17 | 7.81434 | 70.69879 | 32943 ft | 491 kts | 140° |
| 2026-02-21 06:18 | 7.76054 | 70.74130 | 32945 ft | 491 kts | 140° |
| 2026-02-21 06:18 | 7.70674 | 70.78379 | 32949 ft | 491 kts | 140° |
| 2026-02-21 06:19 | 7.65325 | 70.82603 | 32949 ft | 491 kts | 140° |
| 2026-02-21 06:19 | 7.59943 | 70.86852 | 32945 ft | 491 kts | 140° |
| 2026-02-21 06:20 | 7.54562 | 70.91099 | 32944 ft | 491 kts | 140° |
| 2026-02-21 06:20 | 7.49179 | 70.95345 | 32946 ft | 491 kts | 140° |
| 2026-02-21 06:21 | 7.43796 | 70.99581 | 32942 ft | 491 kts | 140° |
| 2026-02-21 06:21 | 7.38404 | 71.03820 | 32944 ft | 491 kts | 140° |
| 2026-02-21 06:22 | 7.33021 | 71.08053 | 32947 ft | 491 kts | 140° |
| 2026-02-21 06:22 | 7.27638 | 71.12286 | 32943 ft | 491 kts | 140° |
| 2026-02-21 06:23 | 7.22255 | 71.16518 | 32942 ft | 491 kts | 140° |
| 2026-02-21 06:23 | 7.16868 | 71.20752 | 32944 ft | 490 kts | 140° |
| 2026-02-21 06:24 | 7.11487 | 71.24980 | 32943 ft | 490 kts | 140° |
| 2026-02-21 06:24 | 7.06143 | 71.29177 | 32943 ft | 490 kts | 140° |
| 2026-02-21 06:25 | 7.00758 | 71.33405 | 32942 ft | 490 kts | 140° |
| 2026-02-21 06:25 | 6.95379 | 71.37628 | 32942 ft | 490 kts | 140° |
| 2026-02-21 06:26 | 6.89995 | 71.41852 | 32942 ft | 490 kts | 140° |
| 2026-02-21 06:26 | 6.84616 | 71.46072 | 32939 ft | 490 kts | 140° |
| 2026-02-21 06:27 | 6.79231 | 71.50295 | 32939 ft | 490 kts | 140° |
| 2026-02-21 06:27 | 6.73843 | 71.54519 | 32942 ft | 490 kts | 140° |
| 2026-02-21 06:28 | 6.68461 | 71.58738 | 32944 ft | 490 kts | 140° |
| 2026-02-21 06:28 | 6.63075 | 71.62958 | 32943 ft | 490 kts | 140° |
| 2026-02-21 06:29 | 6.57697 | 71.67171 | 32940 ft | 490 kts | 140° |
| 2026-02-21 06:29 | 6.52352 | 71.71358 | 32939 ft | 490 kts | 140° |
| 2026-02-21 06:30 | 6.46973 | 71.75570 | 32939 ft | 490 kts | 140° |
| 2026-02-21 06:30 | 6.41594 | 71.79781 | 32940 ft | 490 kts | 140° |
| 2026-02-21 06:31 | 6.36189 | 71.83948 | 32935 ft | 490 kts | 144° |
| 2026-02-21 06:31 | 6.30289 | 71.87411 | 32942 ft | 492 kts | 150° |
| 2026-02-21 06:32 | 6.24222 | 71.90591 | 32937 ft | 492 kts | 150° |
| 2026-02-21 06:32 | 6.18189 | 71.93862 | 32937 ft | 492 kts | 149° |
| 2026-02-21 06:33 | 6.12198 | 71.97206 | 32939 ft | 492 kts | 149° |
| 2026-02-21 06:33 | 6.06213 | 72.00563 | 32937 ft | 493 kts | 149° |
| 2026-02-21 06:34 | 6.00220 | 72.03916 | 32937 ft | 493 kts | 149° |
| 2026-02-21 06:34 | 5.94226 | 72.07264 | 32936 ft | 493 kts | 149° |
| 2026-02-21 06:35 | 5.88271 | 72.10589 | 32936 ft | 493 kts | 149° |
| 2026-02-21 06:35 | 5.82273 | 72.13935 | 32935 ft | 493 kts | 149° |
| 2026-02-21 06:36 | 5.76270 | 72.17280 | 32929 ft | 494 kts | 149° |
| 2026-02-21 06:36 | 5.70264 | 72.20628 | 32936 ft | 494 kts | 149° |
| 2026-02-21 06:37 | 5.64249 | 72.23981 | 32935 ft | 494 kts | 149° |
| 2026-02-21 06:37 | 5.58230 | 72.27336 | 32927 ft | 495 kts | 149° |
| 2026-02-21 06:38 | 5.52214 | 72.30688 | 32930 ft | 495 kts | 149° |
| 2026-02-21 06:38 | 5.46224 | 72.34024 | 32933 ft | 495 kts | 149° |
| 2026-02-21 06:39 | 5.40201 | 72.37378 | 32932 ft | 495 kts | 149° |
| 2026-02-21 06:39 | 5.34183 | 72.40729 | 32932 ft | 495 kts | 149° |
| 2026-02-21 06:40 | 5.28160 | 72.44082 | 32933 ft | 495 kts | 149° |
| 2026-02-21 06:40 | 5.22135 | 72.47435 | 32932 ft | 495 kts | 149° |
| 2026-02-21 06:41 | 5.16103 | 72.50791 | 32931 ft | 495 kts | 149° |
| 2026-02-21 06:41 | 5.10077 | 72.54143 | 32932 ft | 495 kts | 149° |
| 2026-02-21 06:42 | 5.04056 | 72.57492 | 32927 ft | 495 kts | 149° |
| 2026-02-21 06:42 | 4.98071 | 72.60820 | 32928 ft | 495 kts | 149° |
| 2026-02-21 06:43 | 4.92041 | 72.64172 | 32931 ft | 495 kts | 149° |
| 2026-02-21 06:43 | 4.86011 | 72.67524 | 32928 ft | 495 kts | 149° |
| 2026-02-21 06:44 | 4.79980 | 72.70875 | 32929 ft | 495 kts | 149° |
| 2026-02-21 06:44 | 4.73951 | 72.74225 | 32932 ft | 496 kts | 149° |
| 2026-02-21 06:45 | 4.67915 | 72.77578 | 32930 ft | 496 kts | 149° |
| 2026-02-21 06:45 | 4.61883 | 72.80928 | 32918 ft | 496 kts | 149° |
| 2026-02-21 06:46 | 4.55897 | 72.84252 | 32930 ft | 495 kts | 149° |
| 2026-02-21 06:46 | 4.49858 | 72.87604 | 32927 ft | 495 kts | 149° |
| 2026-02-21 06:47 | 4.43829 | 72.90950 | 32929 ft | 495 kts | 149° |
| 2026-02-21 06:47 | 4.37795 | 72.94299 | 32918 ft | 496 kts | 149° |
| 2026-02-21 06:48 | 4.31752 | 72.97652 | 32930 ft | 496 kts | 149° |
| 2026-02-21 06:48 | 4.25717 | 73.01000 | 32933 ft | 495 kts | 149° |
| 2026-02-21 06:49 | 4.19686 | 73.04345 | 32927 ft | 495 kts | 149° |
| 2026-02-21 06:49 | 4.13657 | 73.07689 | 32919 ft | 495 kts | 149° |
| 2026-02-21 06:50 | 4.07674 | 73.11006 | 32903 ft | 479 kts | 149° |
| 2026-02-21 06:50 | 4.05766 | 73.12062 | 32906 ft | 467 kts | 149° |
| 2026-02-21 06:50 | 4.02051 | 73.14120 | 32907 ft | 445 kts | 148° |
| 2026-02-21 06:51 | 3.99440 | 73.15595 | 32898 ft | 426 kts | 144° |
| 2026-02-21 06:51 | 3.97295 | 73.17509 | 32914 ft | 404 kts | 125° |
| 2026-02-21 06:51 | 3.95882 | 73.19877 | 32939 ft | 393 kts | 112° |
| 2026-02-21 06:51 | 3.94992 | 73.22449 | 32923 ft | 390 kts | 101° |
| 2026-02-21 06:52 | 3.94736 | 73.25129 | 32942 ft | 386 kts | 89° |
| 2026-02-21 06:52 | 3.94789 | 73.27823 | 32946 ft | 388 kts | 88° |
| 2026-02-21 06:52 | 3.94868 | 73.33248 | 32946 ft | 391 kts | 89° |
| 2026-02-21 06:53 | 3.94885 | 73.38701 | 32946 ft | 393 kts | 89° |
| 2026-02-21 06:53 | 3.94893 | 73.44182 | 32937 ft | 394 kts | 89° |
| 2026-02-21 06:54 | 3.94895 | 73.49647 | 32925 ft | 386 kts | 89° |
| 2026-02-21 06:54 | 3.94896 | 73.52265 | 32919 ft | 374 kts | 89° |
| 2026-02-21 06:54 | 3.94898 | 73.54844 | 32930 ft | 368 kts | 89° |
| 2026-02-21 06:55 | 3.94900 | 73.59941 | 32936 ft | 365 kts | 89° |
| 2026-02-21 06:55 | 3.94902 | 73.65048 | 32934 ft | 368 kts | 89° |
| 2026-02-21 06:56 | 3.94905 | 73.70183 | 32935 ft | 369 kts | 89° |
| 2026-02-21 06:56 | 3.94908 | 73.75337 | 32938 ft | 370 kts | 89° |
| 2026-02-21 06:57 | 3.94911 | 73.80488 | 32927 ft | 370 kts | 89° |
| 2026-02-21 06:57 | 3.94913 | 73.85631 | 32925 ft | 369 kts | 89° |
| 2026-02-21 06:58 | 3.94917 | 73.93292 | 32920 ft | 367 kts | 89° |
| 2026-02-21 06:59 | 3.94919 | 73.98406 | 32918 ft | 366 kts | 90° |